Time,TemperatureF,DewpointF,PressureIn,WindDirection,WindDirectionDegrees,WindSpeedMPH,WindSpeedGustMPH,Humidity,HourlyPrecipIn,Conditions,Clouds,dailyrainin,SoftwareType,DateUTC
2013-04-28 00:00:00,41.0,37.4,30.34,ENE,67,0.0,0.0,87,0.00,,CLR,0.00,VWS V14.01,2013-04-28 04:00:00,
2013-04-28 00:10:00,41.0,36.8,30.34,ENE,67,0.0,0.0,85,0.00,,CLR,0.00,VWS V14.01,2013-04-28 04:10:00,
2013-04-28 00:20:00,40.0,37.0,30.34,ENE,67,0.0,0.0,89,0.00,,CLR,0.00,VWS V14.01,2013-04-28 04:20:00,
2013-04-28 00:30:00,40.0,37.6,30.33,ENE,67,0.0,0.0,91,0.00,,CLR,0.00,VWS V14.01,2013-04-28 04:30:00,
2013-04-28 00:40:00,40.0,38.1,30.33,ENE,67,0.0,0.0,93,0.00,,CLR,0.00,VWS V14.01,2013-04-28 04:40:00,
2013-04-28 00:50:00,40.0,38.4,30.33,ENE,67,0.0,0.0,94,0.00,,CLR,0.00,VWS V14.01,2013-04-28 04:50:00,
2013-04-28 01:00:00,39.0,37.4,30.32,ENE,67,0.0,0.0,94,0.00,,CLR,0.00,VWS V14.01,2013-04-28 05:00:00,
2013-04-28 01:10:00,39.0,37.4,30.32,ENE,67,0.0,0.0,94,0.00,,CLR,0.00,VWS V14.01,2013-04-28 05:10:00,
2013-04-28 01:20:00,38.0,37.0,30.31,ENE,67,0.0,0.0,96,0.00,,CLR,0.00,VWS V14.01,2013-04-28 05:20:00,
2013-04-28 01:30:00,38.0,37.0,30.31,ENE,67,0.0,0.0,96,0.00,,CLR,0.00,VWS V14.01,2013-04-28 05:30:00,
2013-04-28 01:40:00,38.0,37.0,30.31,ENE,67,0.0,0.0,96,0.00,,CLR,0.00,VWS V14.01,2013-04-28 05:40:00,
2013-04-28 01:50:00,37.0,35.7,30.31,ENE,67,0.0,0.0,95,0.00,,CLR,0.00,VWS V14.01,2013-04-28 05:50:00,
2013-04-28 02:00:00,37.0,35.7,30.31,ENE,67,0.0,0.0,95,0.00,,CLR,0.00,VWS V14.01,2013-04-28 06:00:00,
2013-04-28 02:10:00,36.0,34.7,30.31,ENE,67,0.0,0.0,95,0.00,,CLR,0.00,VWS V14.01,2013-04-28 06:10:00,
2013-04-28 02:20:00,36.0,34.7,30.31,ENE,67,0.0,0.0,95,0.00,,CLR,0.00,VWS V14.01,2013-04-28 06:20:00,
2013-04-28 02:30:00,36.0,34.7,30.31,ENE,67,0.0,0.0,95,0.00,,CLR,0.00,VWS V14.01,2013-04-28 06:30:00,
2013-04-28 02:40:00,36.0,34.7,30.31,ENE,67,0.0,0.0,95,0.00,,CLR,0.00,VWS V14.01,2013-04-28 06:40:00,
2013-04-28 02:50:00,36.0,34.7,30.31,ENE,67,0.0,0.0,95,0.00,,CLR,0.00,VWS V14.01,2013-04-28 06:50:00,
2013-04-28 03:00:00,35.0,33.7,30.31,ENE,67,0.0,0.0,95,0.00,,CLR,0.00,VWS V14.01,2013-04-28 07:00:00,
2013-04-28 03:10:00,35.0,33.7,30.31,ENE,67,0.0,0.0,95,0.00,,CLR,0.00,VWS V14.01,2013-04-28 07:10:00,
2013-04-28 03:20:00,35.0,33.7,30.31,ENE,67,0.0,0.0,95,0.00,,CLR,0.00,VWS V14.01,2013-04-28 07:20:00,
2013-04-28 03:30:00,35.0,33.7,30.31,ENE,67,0.0,0.0,95,0.00,,CLR,0.00,VWS V14.01,2013-04-28 07:30:00,
2013-04-28 03:40:00,35.0,33.7,30.30,ENE,67,0.0,0.0,95,0.00,,CLR,0.00,VWS V14.01,2013-04-28 07:40:00,
2013-04-28 03:50:00,34.0,32.7,30.30,ENE,67,0.0,0.0,95,0.00,,CLR,0.00,VWS V14.01,2013-04-28 07:50:00,
2013-04-28 04:00:00,34.0,32.7,30.30,ENE,67,0.0,0.0,95,0.00,,CLR,0.00,VWS V14.01,2013-04-28 08:00:00,
2013-04-28 04:10:00,34.0,32.7,30.30,ENE,67,0.0,0.0,95,0.00,,CLR,0.00,VWS V14.01,2013-04-28 08:10:00,
2013-04-28 04:20:00,34.0,32.7,30.30,ENE,67,0.0,0.0,95,0.00,,CLR,0.00,VWS V14.01,2013-04-28 08:20:00,
2013-04-28 04:30:00,33.0,31.7,30.30,ENE,67,0.0,0.0,95,0.00,,CLR,0.00,VWS V14.01,2013-04-28 08:30:00,
2013-04-28 04:40:00,33.0,31.7,30.30,ENE,67,0.0,0.0,95,0.00,,CLR,0.00,VWS V14.01,2013-04-28 08:40:00,
2013-04-28 04:50:00,33.0,31.7,30.30,ENE,67,0.0,0.0,95,0.00,,CLR,0.00,VWS V14.01,2013-04-28 08:50:00,
2013-04-28 05:00:00,33.0,31.7,30.30,ENE,67,0.0,0.0,95,0.00,,CLR,0.00,VWS V14.01,2013-04-28 09:00:00,
2013-04-28 05:10:00,33.0,31.7,30.30,ENE,67,0.0,0.0,95,0.00,,CLR,0.00,VWS V14.01,2013-04-28 09:10:00,
2013-04-28 05:20:00,33.0,31.7,30.31,ENE,67,0.0,0.0,95,0.00,,CLR,0.00,VWS V14.01,2013-04-28 09:20:00,
2013-04-28 05:30:00,33.0,31.7,30.31,ENE,67,0.0,0.0,95,0.00,,CLR,0.00,VWS V14.01,2013-04-28 09:30:00,
2013-04-28 05:40:00,34.0,32.7,30.31,ENE,67,0.0,0.0,95,0.00,,CLR,0.00,VWS V14.01,2013-04-28 09:40:00,
2013-04-28 05:50:00,35.0,33.7,30.31,ENE,67,0.0,0.0,95,0.00,,CLR,0.00,VWS V14.01,2013-04-28 09:50:00,
2013-04-28 06:00:00,36.0,34.7,30.31,ENE,67,0.0,0.0,95,0.00,,CLR,0.00,VWS V14.01,2013-04-28 10:00:00,
2013-04-28 06:10:00,37.0,35.7,30.32,ENE,67,0.0,0.0,95,0.00,,CLR,0.00,VWS V14.01,2013-04-28 10:10:00,
2013-04-28 06:20:00,38.0,37.0,30.32,ENE,67,0.0,0.0,96,0.00,,CLR,0.00,VWS V14.01,2013-04-28 10:20:00,
2013-04-28 06:30:00,40.0,39.0,30.33,ENE,67,0.0,0.0,96,0.00,,CLR,0.00,VWS V14.01,2013-04-28 10:30:00,
2013-04-28 06:40:00,42.0,40.9,30.34,ENE,67,0.0,0.0,96,0.00,,CLR,0.00,VWS V14.01,2013-04-28 10:40:00,
2013-04-28 06:50:00,44.0,42.9,30.34,ENE,67,0.0,0.0,96,0.00,,CLR,0.00,VWS V14.01,2013-04-28 10:50:00,
2013-04-28 06:55:00,45.0,44.2,30.35,ENE,67,0.0,0.0,97,0.00,,CLR,0.00,VWS V14.01,2013-04-28 10:55:00,
2013-04-28 06:56:00,45.0,44.2,30.35,ENE,67,0.0,0.0,97,0.00,,CLR,0.00,VWS V14.01,2013-04-28 10:56:00,
2013-04-28 06:57:00,46.0,45.2,30.35,ENE,67,0.0,0.0,97,0.00,,CLR,0.00,VWS V14.01,2013-04-28 10:57:00,
2013-04-28 06:58:00,46.0,45.2,30.35,ENE,67,0.0,0.0,97,0.00,,CLR,0.00,VWS V14.01,2013-04-28 10:58:00,
2013-04-28 06:59:00,46.0,45.2,30.35,ENE,67,0.0,0.0,97,0.00,,CLR,0.00,VWS V14.01,2013-04-28 10:59:00,
2013-04-28 07:57:00,46.0,45.2,30.35,ENE,67,0.0,0.0,97,0.00,,CLR,0.00,VWS V14.01,2013-04-28 11:57:00,
2013-04-28 07:58:00,46.0,45.2,30.35,ENE,67,0.0,0.0,97,0.00,,CLR,0.00,VWS V14.01,2013-04-28 11:58:00,
2013-04-28 08:02:00,47.0,44.5,30.35,SSW,202,0.0,2.0,91,0.00,,CLR,0.00,VWS V14.01,2013-04-28 12:02:00,
2013-04-28 08:03:00,47.0,45.4,30.35,SSW,202,0.0,2.0,94,0.00,,CLR,0.00,VWS V14.01,2013-04-28 12:03:00,
2013-04-28 08:07:00,48.0,45.8,30.36,SSW,202,0.0,2.0,92,0.00,,CLR,0.00,VWS V14.01,2013-04-28 12:07:00,
2013-04-28 08:08:00,48.0,43.4,30.36,SSW,202,0.0,2.0,84,0.00,,CLR,0.00,VWS V14.01,2013-04-28 12:08:00,
2013-04-28 08:09:00,48.0,43.4,30.36,SSW,202,0.0,0.0,84,0.00,,CLR,0.00,VWS V14.01,2013-04-28 12:09:00,
2013-04-28 08:12:00,49.0,46.2,30.36,WNW,292,0.0,1.0,90,0.00,,CLR,0.00,VWS V14.01,2013-04-28 12:12:00,
2013-04-28 08:13:00,49.0,45.9,30.36,WNW,292,0.0,1.0,89,0.00,,CLR,0.00,VWS V14.01,2013-04-28 12:13:00,
2013-04-28 08:14:00,49.0,45.9,30.36,WNW,292,0.0,1.0,89,0.00,,CLR,0.00,VWS V14.01,2013-04-28 12:14:00,
2013-04-28 08:17:00,50.0,46.6,30.36,North,360,0.0,1.0,88,0.00,,CLR,0.00,VWS V14.01,2013-04-28 12:17:00,
2013-04-28 08:18:00,50.0,46.6,30.36,North,360,0.0,1.0,88,0.00,,CLR,0.00,VWS V14.01,2013-04-28 12:18:00,
2013-04-28 08:19:00,50.0,44.1,30.36,WNW,292,0.0,2.0,80,0.00,,CLR,0.00,VWS V14.01,2013-04-28 12:19:00,
2013-04-28 08:23:00,51.0,45.7,30.37,WNW,292,1.0,2.0,82,0.00,,CLR,0.00,VWS V14.01,2013-04-28 12:23:00,
2013-04-28 08:24:00,51.0,44.0,30.37,WNW,292,0.0,2.0,77,0.00,,CLR,0.00,VWS V14.01,2013-04-28 12:24:00,
2013-04-28 08:28:00,52.0,42.9,30.37,NNW,337,0.0,2.0,71,0.00,,CLR,0.00,VWS V14.01,2013-04-28 12:28:00,
2013-04-28 08:29:00,52.0,42.9,30.37,NNW,337,0.0,0.0,71,0.00,,CLR,0.00,VWS V14.01,2013-04-28 12:29:00,
2013-04-28 08:33:00,53.0,42.0,30.37,NW,315,2.0,2.0,66,0.00,,CLR,0.00,VWS V14.01,2013-04-28 12:33:00,
2013-04-28 08:34:00,53.0,41.6,30.37,WNW,292,0.0,2.0,65,0.00,,CLR,0.00,VWS V14.01,2013-04-28 12:34:00,
2013-04-28 08:38:00,53.0,40.8,30.37,NNW,337,2.0,2.0,63,0.00,,CLR,0.00,VWS V14.01,2013-04-28 12:38:00,
2013-04-28 08:39:00,54.0,41.3,30.37,NNW,337,1.0,2.0,62,0.00,,CLR,0.00,VWS V14.01,2013-04-28 12:39:00,
2013-04-28 08:40:00,54.0,41.3,30.37,NNW,337,1.0,2.0,62,0.00,,CLR,0.00,VWS V14.01,2013-04-28 12:40:00,
2013-04-28 08:43:00,54.0,41.3,30.38,NNW,337,0.0,2.0,62,0.00,,CLR,0.00,VWS V14.01,2013-04-28 12:43:00,
2013-04-28 08:44:00,55.0,42.2,30.38,NNW,337,0.0,2.0,62,0.00,,CLR,0.00,VWS V14.01,2013-04-28 12:44:00,
2013-04-28 08:45:00,55.0,41.8,30.38,NNW,337,0.0,2.0,61,0.00,,CLR,0.00,VWS V14.01,2013-04-28 12:45:00,
2013-04-28 08:48:00,55.0,41.8,30.38,NNW,337,0.0,2.0,61,0.00,,CLR,0.00,VWS V14.01,2013-04-28 12:48:00,
2013-04-28 08:49:00,55.0,41.0,30.38,NNW,337,0.0,0.0,59,0.00,,CLR,0.00,VWS V14.01,2013-04-28 12:49:00,
2013-04-28 08:50:00,55.0,41.0,30.38,NNW,337,0.0,0.0,59,0.00,,CLR,0.00,VWS V14.01,2013-04-28 12:50:00,
2013-04-28 08:53:00,56.0,41.5,30.38,SE,135,0.0,1.0,58,0.00,,CLR,0.00,VWS V14.01,2013-04-28 12:53:00,
2013-04-28 08:54:00,56.0,41.5,30.38,SE,135,0.0,1.0,58,0.00,,CLR,0.00,VWS V14.01,2013-04-28 12:54:00,
2013-04-28 08:55:00,56.0,41.0,30.38,SE,135,0.0,1.0,57,0.00,,CLR,0.00,VWS V14.01,2013-04-28 12:55:00,
2013-04-28 08:58:00,56.0,41.0,30.38,SE,135,0.0,1.0,57,0.00,,CLR,0.00,VWS V14.01,2013-04-28 12:58:00,
2013-04-28 08:59:00,56.0,41.0,30.38,SE,135,0.0,0.0,57,0.00,,CLR,0.00,VWS V14.01,2013-04-28 12:59:00,
2013-04-28 09:00:00,57.0,41.0,30.38,SE,135,0.0,0.0,55,0.00,,CLR,0.00,VWS V14.01,2013-04-28 13:00:00,
2013-04-28 09:03:00,57.0,41.0,30.38,ESE,112,0.0,2.0,55,0.00,,CLR,0.00,VWS V14.01,2013-04-28 13:03:00,
2013-04-28 09:04:00,57.0,41.0,30.38,ESE,112,0.0,2.0,55,0.00,,CLR,0.00,VWS V14.01,2013-04-28 13:04:00,
2013-04-28 09:05:00,57.0,41.0,30.38,ESE,112,0.0,2.0,55,0.00,,CLR,0.00,VWS V14.01,2013-04-28 13:05:00,
2013-04-28 09:08:00,58.0,41.9,30.39,SE,135,0.0,2.0,55,0.00,,CLR,0.00,VWS V14.01,2013-04-28 13:08:00,
2013-04-28 09:09:00,58.0,41.5,30.39,SE,135,0.0,0.0,54,0.00,,CLR,0.00,VWS V14.01,2013-04-28 13:09:00,
2013-04-28 09:10:00,58.0,41.5,30.39,SE,135,0.0,0.0,54,0.00,,CLR,0.00,VWS V14.01,2013-04-28 13:10:00,
2013-04-28 09:13:00,58.0,41.0,30.39,South,180,0.0,2.0,53,0.00,,CLR,0.00,VWS V14.01,2013-04-28 13:13:00,
2013-04-28 09:14:00,58.0,41.5,30.39,South,180,0.0,2.0,54,0.00,,CLR,0.00,VWS V14.01,2013-04-28 13:14:00,
2013-04-28 09:15:00,58.0,41.5,30.39,WSW,247,0.0,2.0,54,0.00,,CLR,0.00,VWS V14.01,2013-04-28 13:15:00,
2013-04-28 09:18:00,58.0,41.0,30.39,West,270,2.0,2.0,53,0.00,,CLR,0.00,VWS V14.01,2013-04-28 13:18:00,
2013-04-28 09:19:00,58.0,41.0,30.39,WSW,247,2.0,2.0,53,0.00,,CLR,0.00,VWS V14.01,2013-04-28 13:19:00,
2013-04-28 09:20:00,58.0,41.0,30.39,WSW,247,1.0,2.0,53,0.00,,CLR,0.00,VWS V14.01,2013-04-28 13:20:00,
2013-04-28 09:23:00,58.0,41.0,30.39,NW,315,0.0,2.0,53,0.00,,CLR,0.00,VWS V14.01,2013-04-28 13:23:00,
2013-04-28 09:24:00,58.0,41.0,30.39,West,270,0.0,2.0,53,0.00,,CLR,0.00,VWS V14.01,2013-04-28 13:24:00,
2013-04-28 09:25:00,58.0,41.0,30.39,SSW,202,1.0,2.0,53,0.00,,CLR,0.00,VWS V14.01,2013-04-28 13:25:00,
2013-04-28 09:26:00,58.0,41.0,30.39,SW,225,1.0,2.0,53,0.00,,CLR,0.00,VWS V14.01,2013-04-28 13:26:00,
2013-04-28 09:28:00,59.0,41.9,30.39,WSW,247,0.0,0.0,53,0.00,,CLR,0.00,VWS V14.01,2013-04-28 13:28:00,
2013-04-28 09:29:00,59.0,41.9,30.39,WSW,247,0.0,0.0,53,0.00,,CLR,0.00,VWS V14.01,2013-04-28 13:29:00,
2013-04-28 09:30:00,59.0,41.9,30.39,WSW,247,0.0,0.0,53,0.00,,CLR,0.00,VWS V14.01,2013-04-28 13:30:00,
2013-04-28 09:31:00,59.0,41.9,30.39,WSW,247,0.0,0.0,53,0.00,,CLR,0.00,VWS V14.01,2013-04-28 13:31:00,
2013-04-28 09:33:00,60.0,41.3,30.39,NW,315,2.0,2.0,50,0.00,,CLR,0.00,VWS V14.01,2013-04-28 13:33:00,
2013-04-28 09:34:00,60.0,41.3,30.39,NNW,337,0.0,2.0,50,0.00,,CLR,0.00,VWS V14.01,2013-04-28 13:34:00,
2013-04-28 09:35:00,60.0,41.8,30.39,NNW,337,0.0,2.0,51,0.00,,CLR,0.00,VWS V14.01,2013-04-28 13:35:00,
2013-04-28 09:36:00,60.0,41.8,30.39,ENE,67,0.0,2.0,51,0.00,,CLR,0.00,VWS V14.01,2013-04-28 13:36:00,
2013-04-28 09:38:00,61.0,42.2,30.39,SSE,157,0.0,0.0,50,0.00,,CLR,0.00,VWS V14.01,2013-04-28 13:38:00,
2013-04-28 09:40:00,61.0,40.1,30.39,SSE,157,0.0,0.0,46,0.00,,CLR,0.00,VWS V14.01,2013-04-28 13:40:00,
2013-04-28 09:41:00,61.0,39.5,30.39,SSE,157,0.0,0.0,45,0.00,,CLR,0.00,VWS V14.01,2013-04-28 13:41:00,
2013-04-28 09:44:00,61.0,38.4,30.39,WSW,247,0.0,2.0,43,0.00,,CLR,0.00,VWS V14.01,2013-04-28 13:44:00,
2013-04-28 09:45:00,62.0,39.9,30.39,SSW,202,2.0,2.0,44,0.00,,CLR,0.00,VWS V14.01,2013-04-28 13:45:00,
2013-04-28 09:47:00,62.0,38.0,30.39,South,180,0.0,2.0,41,0.00,,CLR,0.00,VWS V14.01,2013-04-28 13:47:00,
2013-04-28 09:49:00,62.0,38.7,30.39,South,180,0.0,0.0,42,0.00,,CLR,0.00,VWS V14.01,2013-04-28 13:49:00,
2013-04-28 09:50:00,62.0,38.7,30.39,South,180,0.0,0.0,42,0.00,,CLR,0.00,VWS V14.01,2013-04-28 13:50:00,
2013-04-28 09:51:00,62.0,38.7,30.39,South,180,0.0,0.0,42,0.00,,CLR,0.00,VWS V14.01,2013-04-28 13:51:00,
2013-04-28 09:52:00,63.0,39.6,30.40,South,180,0.0,0.0,42,0.00,,CLR,0.00,VWS V14.01,2013-04-28 13:52:00,
2013-04-28 09:54:00,62.0,37.4,30.40,South,180,3.0,3.0,40,0.00,,CLR,0.00,VWS V14.01,2013-04-28 13:54:00,
2013-04-28 09:55:00,62.0,37.4,30.40,WSW,247,2.0,3.0,40,0.00,,CLR,0.00,VWS V14.01,2013-04-28 13:55:00,
2013-04-28 09:56:00,62.0,37.4,30.40,SW,225,0.0,3.0,40,0.00,,CLR,0.00,VWS V14.01,2013-04-28 13:56:00,
2013-04-28 09:57:00,63.0,38.3,30.40,SW,225,0.0,3.0,40,0.00,,CLR,0.00,VWS V14.01,2013-04-28 13:57:00,
2013-04-28 09:59:00,62.0,36.1,30.40,SSW,202,2.0,2.0,38,0.00,,CLR,0.00,VWS V14.01,2013-04-28 13:59:00,
2013-04-28 10:00:00,62.0,36.1,30.40,West,270,2.0,2.0,38,0.00,,CLR,0.00,VWS V14.01,2013-04-28 14:00:00,
2013-04-28 10:01:00,62.0,36.1,30.40,WSW,247,1.0,3.0,38,0.00,,CLR,0.00,VWS V14.01,2013-04-28 14:01:00,
2013-04-28 10:02:00,63.0,37.7,30.39,South,180,1.0,3.0,39,0.00,,CLR,0.00,VWS V14.01,2013-04-28 14:02:00,
2013-04-28 10:04:00,63.0,38.3,30.39,SW,225,0.0,3.0,40,0.00,,CLR,0.00,VWS V14.01,2013-04-28 14:04:00,
2013-04-28 10:05:00,63.0,37.7,30.39,SW,225,0.0,3.0,39,0.00,,CLR,0.00,VWS V14.01,2013-04-28 14:05:00,
2013-04-28 10:06:00,63.0,37.0,30.39,SSW,202,2.0,4.0,38,0.00,,CLR,0.00,VWS V14.01,2013-04-28 14:06:00,
2013-04-28 10:07:00,63.0,37.0,30.40,WSW,247,0.0,4.0,38,0.00,,CLR,0.00,VWS V14.01,2013-04-28 14:07:00,
2013-04-28 10:09:00,63.0,36.3,30.40,WSW,247,1.0,4.0,37,0.00,,CLR,0.00,VWS V14.01,2013-04-28 14:09:00,
2013-04-28 10:10:00,63.0,37.0,30.40,SW,225,1.0,4.0,38,0.00,,CLR,0.00,VWS V14.01,2013-04-28 14:10:00,
2013-04-28 10:11:00,63.0,37.0,30.40,SW,225,0.0,4.0,38,0.00,,CLR,0.00,VWS V14.01,2013-04-28 14:11:00,
2013-04-28 10:12:00,63.0,37.7,30.40,SW,225,0.0,4.0,39,0.00,,CLR,0.00,VWS V14.01,2013-04-28 14:12:00,
2013-04-28 10:14:00,63.0,37.0,30.40,SW,225,0.0,4.0,38,0.00,,CLR,0.00,VWS V14.01,2013-04-28 14:14:00,
2013-04-28 10:16:00,63.0,36.3,30.40,WSW,247,1.0,4.0,37,0.00,,CLR,0.00,VWS V14.01,2013-04-28 14:16:00,
2013-04-28 10:17:00,64.0,37.2,30.40,SSW,202,0.0,4.0,37,0.00,,CLR,0.00,VWS V14.01,2013-04-28 14:17:00,
2013-04-28 10:18:00,64.0,37.2,30.40,SSW,202,2.0,4.0,37,0.00,,CLR,0.00,VWS V14.01,2013-04-28 14:18:00,
2013-04-28 10:19:00,64.0,36.5,30.40,South,180,0.0,2.0,36,0.00,,CLR,0.00,VWS V14.01,2013-04-28 14:19:00,
2013-04-28 10:21:00,64.0,37.2,30.40,East,90,0.0,2.0,37,0.00,,CLR,0.00,VWS V14.01,2013-04-28 14:21:00,
2013-04-28 10:22:00,64.0,36.5,30.40,South,180,1.0,2.0,36,0.00,,CLR,0.00,VWS V14.01,2013-04-28 14:22:00,
2013-04-28 10:23:00,64.0,35.8,30.40,West,270,2.0,5.0,35,0.00,,CLR,0.00,VWS V14.01,2013-04-28 14:23:00,
2013-04-28 10:24:00,64.0,36.5,30.40,North,360,2.0,5.0,36,0.00,,CLR,0.00,VWS V14.01,2013-04-28 14:24:00,
2013-04-28 10:26:00,64.0,35.8,30.40,South,180,3.0,5.0,35,0.00,,CLR,0.00,VWS V14.01,2013-04-28 14:26:00,
2013-04-28 10:27:00,64.0,35.8,30.40,SSW,202,1.0,5.0,35,0.00,,CLR,0.00,VWS V14.01,2013-04-28 14:27:00,
2013-04-28 10:28:00,64.0,35.8,30.40,WSW,247,0.0,5.0,35,0.00,,CLR,0.00,VWS V14.01,2013-04-28 14:28:00,
2013-04-28 10:30:00,64.0,35.8,30.40,SE,135,1.0,2.0,35,0.00,,CLR,0.00,VWS V14.01,2013-04-28 14:30:00,
2013-04-28 10:31:00,64.0,36.5,30.40,SE,135,0.0,2.0,36,0.00,,CLR,0.00,VWS V14.01,2013-04-28 14:31:00,
2013-04-28 10:32:00,64.0,35.8,30.39,South,180,4.0,4.0,35,0.00,,CLR,0.00,VWS V14.01,2013-04-28 14:32:00,
2013-04-28 10:33:00,64.0,36.5,30.39,South,180,1.0,4.0,36,0.00,,CLR,0.00,VWS V14.01,2013-04-28 14:33:00,
2013-04-28 10:35:00,64.0,36.5,30.39,ESE,112,2.0,4.0,36,0.00,,CLR,0.00,VWS V14.01,2013-04-28 14:35:00,
2013-04-28 10:36:00,64.0,37.2,30.39,South,180,1.0,4.0,37,0.00,,CLR,0.00,VWS V14.01,2013-04-28 14:36:00,
2013-04-28 10:37:00,64.0,36.5,30.39,South,180,1.0,4.0,36,0.00,,CLR,0.00,VWS V14.01,2013-04-28 14:37:00,
2013-04-28 10:38:00,64.0,37.2,30.39,WSW,247,1.0,4.0,37,0.00,,CLR,0.00,VWS V14.01,2013-04-28 14:38:00,
2013-04-28 10:40:00,64.0,36.5,30.39,SSE,157,2.0,6.0,36,0.00,,CLR,0.00,VWS V14.01,2013-04-28 14:40:00,
2013-04-28 10:41:00,64.0,37.2,30.39,WSW,247,2.0,6.0,37,0.00,,CLR,0.00,VWS V14.01,2013-04-28 14:41:00,
2013-04-28 10:42:00,64.0,37.2,30.39,WNW,292,3.0,6.0,37,0.00,,CLR,0.00,VWS V14.01,2013-04-28 14:42:00,
2013-04-28 10:44:00,63.0,36.3,30.39,WSW,247,4.0,6.0,37,0.00,,CLR,0.00,VWS V14.01,2013-04-28 14:44:00,
2013-04-28 10:45:00,63.0,37.0,30.39,West,270,1.0,6.0,38,0.00,,CLR,0.00,VWS V14.01,2013-04-28 14:45:00,
2013-04-28 10:46:00,63.0,37.0,30.39,SW,225,1.0,6.0,38,0.00,,CLR,0.00,VWS V14.01,2013-04-28 14:46:00,
2013-04-28 10:47:00,63.0,36.3,30.39,WSW,247,1.0,6.0,37,0.00,,CLR,0.00,VWS V14.01,2013-04-28 14:47:00,
2013-04-28 10:48:00,63.0,36.3,30.39,WSW,247,2.0,6.0,37,0.00,,CLR,0.00,VWS V14.01,2013-04-28 14:48:00,
2013-04-28 10:49:00,63.0,37.0,30.39,West,270,0.0,1.0,38,0.00,,CLR,0.00,VWS V14.01,2013-04-28 14:49:00,
2013-04-28 10:50:00,63.0,35.7,30.39,WSW,247,3.0,4.0,36,0.00,,CLR,0.00,VWS V14.01,2013-04-28 14:50:00,
2013-04-28 10:51:00,64.0,36.5,30.39,WSW,247,0.0,4.0,36,0.00,,CLR,0.00,VWS V14.01,2013-04-28 14:51:00,
2013-04-28 10:52:00,64.0,36.5,30.39,WSW,247,2.0,4.0,36,0.00,,CLR,0.00,VWS V14.01,2013-04-28 14:52:00,
2013-04-28 10:53:00,64.0,36.5,30.39,SSW,202,1.0,4.0,36,0.00,,CLR,0.00,VWS V14.01,2013-04-28 14:53:00,
2013-04-28 10:54:00,64.0,37.2,30.39,ENE,67,1.0,4.0,37,0.00,,CLR,0.00,VWS V14.01,2013-04-28 14:54:00,
2013-04-28 10:55:00,64.0,36.5,30.39,ENE,67,1.0,4.0,36,0.00,,CLR,0.00,VWS V14.01,2013-04-28 14:55:00,
2013-04-28 10:56:00,64.0,36.5,30.39,SE,135,0.0,4.0,36,0.00,,CLR,0.00,VWS V14.01,2013-04-28 14:56:00,
2013-04-28 10:57:00,64.0,37.2,30.39,SE,135,0.0,4.0,37,0.00,,CLR,0.00,VWS V14.01,2013-04-28 14:57:00,
2013-04-28 10:58:00,64.0,37.2,30.39,NNE,22,0.0,4.0,37,0.00,,CLR,0.00,VWS V14.01,2013-04-28 14:58:00,
2013-04-28 10:59:00,65.0,37.4,30.39,ENE,67,2.0,2.0,36,0.00,,CLR,0.00,VWS V14.01,2013-04-28 14:59:00,
2013-04-28 11:00:00,65.0,37.4,30.39,SSW,202,2.0,2.0,36,0.00,,CLR,0.00,VWS V14.01,2013-04-28 15:00:00,
2013-04-28 11:02:00,66.0,37.6,30.39,SW,225,2.0,2.0,35,0.00,,CLR,0.00,VWS V14.01,2013-04-28 15:02:00,
2013-04-28 11:03:00,66.0,36.1,30.39,West,270,4.0,6.0,33,0.00,,CLR,0.00,VWS V14.01,2013-04-28 15:03:00,
2013-04-28 11:04:00,65.0,34.5,30.39,WNW,292,2.0,6.0,32,0.00,,CLR,0.00,VWS V14.01,2013-04-28 15:04:00,
2013-04-28 11:05:00,65.0,34.5,30.39,SSW,202,6.0,6.0,32,0.00,,CLR,0.00,VWS V14.01,2013-04-28 15:05:00,
2013-04-28 11:07:00,65.0,34.5,30.39,SW,225,2.0,6.0,32,0.00,,CLR,0.00,VWS V14.01,2013-04-28 15:07:00,
2013-04-28 11:08:00,65.0,34.5,30.39,WSW,247,1.0,6.0,32,0.00,,CLR,0.00,VWS V14.01,2013-04-28 15:08:00,
2013-04-28 11:09:00,65.0,35.2,30.39,WSW,247,3.0,3.0,33,0.00,,CLR,0.00,VWS V14.01,2013-04-28 15:09:00,
2013-04-28 11:10:00,65.0,34.5,30.39,WSW,247,0.0,4.0,32,0.00,,CLR,0.00,VWS V14.01,2013-04-28 15:10:00,
2013-04-28 11:12:00,66.0,35.3,30.38,SSW,202,1.0,4.0,32,0.00,,CLR,0.00,VWS V14.01,2013-04-28 15:12:00,
2013-04-28 11:13:00,66.0,35.3,30.38,West,270,2.0,4.0,32,0.00,,CLR,0.00,VWS V14.01,2013-04-28 15:13:00,
2013-04-28 11:14:00,66.0,34.5,30.38,WSW,247,3.0,6.0,31,0.00,,CLR,0.00,VWS V14.01,2013-04-28 15:14:00,
2013-04-28 11:16:00,65.0,32.8,30.38,SW,225,2.0,6.0,30,0.00,,CLR,0.00,VWS V14.01,2013-04-28 15:16:00,
2013-04-28 11:17:00,65.0,33.7,30.38,WSW,247,4.0,6.0,31,0.00,,CLR,0.00,VWS V14.01,2013-04-28 15:17:00,
2013-04-28 11:18:00,65.0,34.5,30.38,WSW,247,0.0,6.0,32,0.00,,CLR,0.00,VWS V14.01,2013-04-28 15:18:00,
2013-04-28 11:19:00,65.0,33.7,30.38,West,270,2.0,4.0,31,0.00,,CLR,0.00,VWS V14.01,2013-04-28 15:19:00,
2013-04-28 11:21:00,65.0,34.5,30.38,SSW,202,2.0,5.0,32,0.00,,CLR,0.00,VWS V14.01,2013-04-28 15:21:00,
2013-04-28 11:22:00,65.0,35.2,30.38,WSW,247,1.0,5.0,33,0.00,,CLR,0.00,VWS V14.01,2013-04-28 15:22:00,
2013-04-28 11:23:00,65.0,33.7,30.38,SSW,202,0.0,5.0,31,0.00,,CLR,0.00,VWS V14.01,2013-04-28 15:23:00,
2013-04-28 11:24:00,66.0,35.3,30.38,ESE,112,2.0,5.0,32,0.00,,CLR,0.00,VWS V14.01,2013-04-28 15:24:00,
2013-04-28 11:26:00,65.0,33.7,30.38,East,90,0.0,6.0,31,0.00,,CLR,0.00,VWS V14.01,2013-04-28 15:26:00,
2013-04-28 11:27:00,66.0,34.5,30.37,East,90,0.0,6.0,31,0.00,,CLR,0.00,VWS V14.01,2013-04-28 15:27:00,
2013-04-28 11:28:00,65.0,34.5,30.37,WSW,247,1.0,6.0,32,0.00,,CLR,0.00,VWS V14.01,2013-04-28 15:28:00,
2013-04-28 11:29:00,66.0,35.3,30.37,South,180,0.0,2.0,32,0.00,,CLR,0.00,VWS V14.01,2013-04-28 15:29:00,
2013-04-28 11:32:00,66.0,35.3,30.37,South,180,0.0,3.0,32,0.00,,CLR,0.00,VWS V14.01,2013-04-28 15:32:00,
2013-04-28 11:33:00,66.0,36.1,30.38,SW,225,1.0,3.0,33,0.00,,CLR,0.00,VWS V14.01,2013-04-28 15:33:00,
2013-04-28 11:34:00,67.0,34.6,30.38,SSE,157,1.0,3.0,30,0.00,,CLR,0.00,VWS V14.01,2013-04-28 15:34:00,
2013-04-28 11:35:00,67.0,35.4,30.38,SE,135,2.0,3.0,31,0.00,,CLR,0.00,VWS V14.01,2013-04-28 15:35:00,
2013-04-28 11:37:00,67.0,34.6,30.37,SSE,157,0.0,3.0,30,0.00,,CLR,0.00,VWS V14.01,2013-04-28 15:37:00,
2013-04-28 11:38:00,66.0,34.5,30.37,SSE,157,0.0,3.0,31,0.00,,CLR,0.00,VWS V14.01,2013-04-28 15:38:00,
2013-04-28 11:39:00,67.0,34.6,30.37,SSW,202,0.0,2.0,30,0.00,,CLR,0.00,VWS V14.01,2013-04-28 15:39:00,
2013-04-28 11:40:00,67.0,35.4,30.37,WNW,292,0.0,2.0,31,0.00,,CLR,0.00,VWS V14.01,2013-04-28 15:40:00,
2013-04-28 11:42:00,67.0,36.2,30.37,SSE,157,2.0,2.0,32,0.00,,CLR,0.00,VWS V14.01,2013-04-28 15:42:00,
2013-04-28 11:43:00,67.0,35.4,30.37,WSW,247,2.0,2.0,31,0.00,,CLR,0.00,VWS V14.01,2013-04-28 15:43:00,
2013-04-28 11:45:00,67.0,35.4,30.37,SW,225,0.0,2.0,31,0.00,,CLR,0.00,VWS V14.01,2013-04-28 15:45:00,
2013-04-28 11:47:00,68.0,35.4,30.37,SSW,202,2.0,4.0,30,0.00,,CLR,0.00,VWS V14.01,2013-04-28 15:47:00,
2013-04-28 11:48:00,67.0,34.6,30.37,SSW,202,1.0,4.0,30,0.00,,CLR,0.00,VWS V14.01,2013-04-28 15:48:00,
2013-04-28 11:50:00,67.0,34.6,30.37,South,180,2.0,4.0,30,0.00,,CLR,0.00,VWS V14.01,2013-04-28 15:50:00,
2013-04-28 11:52:00,68.0,35.4,30.37,SE,135,1.0,4.0,30,0.00,,CLR,0.00,VWS V14.01,2013-04-28 15:52:00,
2013-04-28 11:53:00,68.0,34.6,30.37,SSE,157,1.0,4.0,29,0.00,,CLR,0.00,VWS V14.01,2013-04-28 15:53:00,
2013-04-28 11:55:00,67.0,34.6,30.37,SE,135,1.0,4.0,30,0.00,,CLR,0.00,VWS V14.01,2013-04-28 15:55:00,
2013-04-28 11:57:00,67.0,34.6,30.37,ESE,112,1.0,4.0,30,0.00,,CLR,0.00,VWS V14.01,2013-04-28 15:57:00,
2013-04-28 11:58:00,67.0,34.6,30.37,South,180,0.0,0.0,30,0.00,,CLR,0.00,VWS V14.01,2013-04-28 15:58:00,
2013-04-28 12:00:00,67.0,35.4,30.37,SSE,157,2.0,6.0,31,0.00,,CLR,0.00,VWS V14.01,2013-04-28 16:00:00,
2013-04-28 12:01:00,67.0,35.4,30.37,ESE,112,1.0,6.0,31,0.00,,CLR,0.00,VWS V14.01,2013-04-28 16:01:00,
2013-04-28 12:02:00,67.0,34.6,30.37,NNW,337,2.0,6.0,30,0.00,,CLR,0.00,VWS V14.01,2013-04-28 16:02:00,
2013-04-28 12:03:00,67.0,34.6,30.37,WSW,247,0.0,6.0,30,0.00,,CLR,0.00,VWS V14.01,2013-04-28 16:03:00,
2013-04-28 12:04:00,67.0,34.6,30.37,WSW,247,0.0,6.0,30,0.00,,CLR,0.00,VWS V14.01,2013-04-28 16:04:00,
2013-04-28 12:06:00,68.0,35.4,30.37,SSW,202,1.0,6.0,30,0.00,,CLR,0.00,VWS V14.01,2013-04-28 16:06:00,
2013-04-28 12:07:00,68.0,34.6,30.37,SSW,202,0.0,6.0,29,0.00,,CLR,0.00,VWS V14.01,2013-04-28 16:07:00,
2013-04-28 12:08:00,68.0,34.6,30.37,SSW,202,0.0,0.0,29,0.00,,CLR,0.00,VWS V14.01,2013-04-28 16:08:00,
2013-04-28 12:09:00,68.0,34.6,30.37,South,180,2.0,2.0,29,0.00,,CLR,0.00,VWS V14.01,2013-04-28 16:09:00,
2013-04-28 12:11:00,68.0,33.7,30.37,SSW,202,0.0,5.0,28,0.00,,CLR,0.00,VWS V14.01,2013-04-28 16:11:00,
2013-04-28 12:12:00,68.0,33.7,30.37,South,180,1.0,5.0,28,0.00,,CLR,0.00,VWS V14.01,2013-04-28 16:12:00,
2013-04-28 12:14:00,68.0,33.7,30.37,North,360,2.0,5.0,28,0.00,,CLR,0.00,VWS V14.01,2013-04-28 16:14:00,
2013-04-28 12:16:00,68.0,35.4,30.37,ENE,67,0.0,5.0,30,0.00,,CLR,0.00,VWS V14.01,2013-04-28 16:16:00,
2013-04-28 12:18:00,68.0,34.6,30.37,East,90,2.0,5.0,29,0.00,,CLR,0.00,VWS V14.01,2013-04-28 16:18:00,
2013-04-28 12:19:00,68.0,34.6,30.37,SSE,157,1.0,2.0,29,0.00,,CLR,0.00,VWS V14.01,2013-04-28 16:19:00,
2013-04-28 12:21:00,67.0,34.6,30.37,ENE,67,1.0,4.0,30,0.00,,CLR,0.00,VWS V14.01,2013-04-28 16:21:00,
2013-04-28 12:23:00,67.0,34.6,30.37,SSE,157,2.0,4.0,30,0.00,,CLR,0.00,VWS V14.01,2013-04-28 16:23:00,
2013-04-28 12:24:00,67.0,34.6,30.37,West,270,6.0,7.0,30,0.00,,CLR,0.00,VWS V14.01,2013-04-28 16:24:00,
2013-04-28 12:26:00,67.0,33.7,30.37,WSW,247,2.0,7.0,29,0.00,,CLR,0.00,VWS V14.01,2013-04-28 16:26:00,
2013-04-28 12:28:00,67.0,34.6,30.36,South,180,2.0,7.0,30,0.00,,CLR,0.00,VWS V14.01,2013-04-28 16:28:00,
2013-04-28 12:29:00,67.0,34.6,30.36,South,180,2.0,3.0,30,0.00,,CLR,0.00,VWS V14.01,2013-04-28 16:29:00,
2013-04-28 12:30:00,67.0,33.7,30.36,SE,135,0.0,3.0,29,0.00,,CLR,0.00,VWS V14.01,2013-04-28 16:30:00,
2013-04-28 12:31:00,67.0,34.6,30.36,SE,135,0.0,3.0,30,0.00,,CLR,0.00,VWS V14.01,2013-04-28 16:31:00,
2013-04-28 12:33:00,68.0,34.6,30.36,South,180,2.0,3.0,29,0.00,,CLR,0.00,VWS V14.01,2013-04-28 16:33:00,
2013-04-28 12:34:00,68.0,33.7,30.36,WSW,247,1.0,4.0,28,0.00,,CLR,0.00,VWS V14.01,2013-04-28 16:34:00,
2013-04-28 12:35:00,68.0,33.7,30.36,West,270,1.0,4.0,28,0.00,,CLR,0.00,VWS V14.01,2013-04-28 16:35:00,
2013-04-28 12:36:00,68.0,32.8,30.36,SSE,157,1.0,4.0,27,0.00,,CLR,0.00,VWS V14.01,2013-04-28 16:36:00,
2013-04-28 12:37:00,68.0,33.7,30.36,SSW,202,1.0,4.0,28,0.00,,CLR,0.00,VWS V14.01,2013-04-28 16:37:00,
2013-04-28 12:38:00,68.0,36.3,30.36,ESE,112,0.0,4.0,31,0.00,,CLR,0.00,VWS V14.01,2013-04-28 16:38:00,
2013-04-28 12:39:00,68.0,39.3,30.36,South,180,1.0,2.0,35,0.00,,CLR,0.00,VWS V14.01,2013-04-28 16:39:00,
2013-04-28 12:40:00,68.0,38.6,30.36,ESE,112,5.0,7.0,34,0.00,,CLR,0.00,VWS V14.01,2013-04-28 16:40:00,
2013-04-28 12:42:00,68.0,38.6,30.36,ENE,67,2.0,7.0,34,0.00,,CLR,0.00,VWS V14.01,2013-04-28 16:42:00,
2013-04-28 12:43:00,67.0,38.5,30.36,East,90,2.0,7.0,35,0.00,,CLR,0.00,VWS V14.01,2013-04-28 16:43:00,
2013-04-28 12:44:00,67.0,39.9,30.36,SE,135,0.0,7.0,37,0.00,,CLR,0.00,VWS V14.01,2013-04-28 16:44:00,
2013-04-28 12:45:00,67.0,39.2,30.36,East,90,0.0,7.0,36,0.00,,CLR,0.00,VWS V14.01,2013-04-28 16:45:00,
2013-04-28 12:47:00,68.0,39.3,30.35,SE,135,1.0,7.0,35,0.00,,CLR,0.00,VWS V14.01,2013-04-28 16:47:00,
2013-04-28 12:49:00,67.0,38.5,30.35,SSE,157,0.0,2.0,35,0.00,,CLR,0.00,VWS V14.01,2013-04-28 16:49:00,
2013-04-28 12:51:00,68.0,39.3,30.35,ESE,112,4.0,5.0,35,0.00,,CLR,0.00,VWS V14.01,2013-04-28 16:51:00,
2013-04-28 12:52:00,67.0,37.7,30.35,ESE,112,9.0,9.0,34,0.00,,CLR,0.00,VWS V14.01,2013-04-28 16:52:00,
2013-04-28 12:53:00,67.0,37.7,30.35,ESE,112,5.0,10.0,34,0.00,,CLR,0.00,VWS V14.01,2013-04-28 16:53:00,
2013-04-28 12:54:00,65.0,38.1,30.35,ESE,112,2.0,10.0,37,0.00,,CLR,0.00,VWS V14.01,2013-04-28 16:54:00,
2013-04-28 12:56:00,65.0,38.1,30.35,ESE,112,5.0,10.0,37,0.00,,CLR,0.00,VWS V14.01,2013-04-28 16:56:00,
2013-04-28 12:57:00,66.0,39.0,30.35,SE,135,2.0,10.0,37,0.00,,CLR,0.00,VWS V14.01,2013-04-28 16:57:00,
2013-04-28 12:58:00,66.0,39.0,30.35,East,90,2.0,10.0,37,0.00,,CLR,0.00,VWS V14.01,2013-04-28 16:58:00,
2013-04-28 12:59:00,66.0,39.0,30.35,ESE,112,0.0,2.0,37,0.00,,CLR,0.00,VWS V14.01,2013-04-28 16:59:00,
2013-04-28 13:00:00,66.0,39.0,30.35,ESE,112,1.0,2.0,37,0.00,,CLR,0.00,VWS V14.01,2013-04-28 17:00:00,
2013-04-28 13:02:00,66.0,39.0,30.35,SE,135,0.0,6.0,37,0.00,,CLR,0.00,VWS V14.01,2013-04-28 17:02:00,
2013-04-28 13:03:00,66.0,39.0,30.35,SE,135,0.0,6.0,37,0.00,,CLR,0.00,VWS V14.01,2013-04-28 17:03:00,
2013-04-28 13:05:00,66.0,39.0,30.35,East,90,3.0,7.0,37,0.00,,CLR,0.00,VWS V14.01,2013-04-28 17:05:00,
2013-04-28 13:07:00,66.0,37.6,30.35,ESE,112,4.0,7.0,35,0.00,,CLR,0.00,VWS V14.01,2013-04-28 17:07:00,
2013-04-28 13:09:00,66.0,37.6,30.35,ESE,112,3.0,4.0,35,0.00,,CLR,0.00,VWS V14.01,2013-04-28 17:09:00,
2013-04-28 13:10:00,66.0,38.3,30.35,East,90,1.0,6.0,36,0.00,,CLR,0.00,VWS V14.01,2013-04-28 17:10:00,
2013-04-28 13:12:00,66.0,37.6,30.35,NNW,337,1.0,6.0,35,0.00,,CLR,0.00,VWS V14.01,2013-04-28 17:12:00,
2013-04-28 13:14:00,66.0,36.8,30.35,ESE,112,9.0,9.0,34,0.00,,CLR,0.00,VWS V14.01,2013-04-28 17:14:00,
2013-04-28 13:15:00,66.0,37.6,30.35,SSE,157,4.0,9.0,35,0.00,,CLR,0.00,VWS V14.01,2013-04-28 17:15:00,
2013-04-28 13:17:00,65.0,36.7,30.35,SE,135,2.0,9.0,35,0.00,,CLR,0.00,VWS V14.01,2013-04-28 17:17:00,
2013-04-28 13:19:00,66.0,37.6,30.35,ESE,112,1.0,2.0,35,0.00,,CLR,0.00,VWS V14.01,2013-04-28 17:19:00,
2013-04-28 13:20:00,66.0,37.6,30.35,East,90,2.0,2.0,35,0.00,,CLR,0.00,VWS V14.01,2013-04-28 17:20:00,
2013-04-28 13:22:00,67.0,37.7,30.35,East,90,6.0,7.0,34,0.00,,CLR,0.00,VWS V14.01,2013-04-28 17:22:00,
2013-04-28 13:24:00,67.0,37.7,30.35,East,90,4.0,7.0,34,0.00,,CLR,0.00,VWS V14.01,2013-04-28 17:24:00,
2013-04-28 13:25:00,66.0,36.1,30.35,ESE,112,3.0,9.0,33,0.00,,CLR,0.00,VWS V14.01,2013-04-28 17:25:00,
2013-04-28 13:27:00,67.0,37.0,30.34,East,90,2.0,9.0,33,0.00,,CLR,0.00,VWS V14.01,2013-04-28 17:27:00,
2013-04-28 13:29:00,67.0,37.7,30.34,ESE,112,1.0,4.0,34,0.00,,CLR,0.00,VWS V14.01,2013-04-28 17:29:00,
2013-04-28 13:30:00,67.0,36.2,30.34,East,90,3.0,4.0,32,0.00,,CLR,0.00,VWS V14.01,2013-04-28 17:30:00,
2013-04-28 13:31:00,67.0,37.7,30.34,East,90,7.0,7.0,34,0.00,,CLR,0.00,VWS V14.01,2013-04-28 17:31:00,
2013-04-28 13:32:00,67.0,37.0,30.34,ESE,112,3.0,7.0,33,0.00,,CLR,0.00,VWS V14.01,2013-04-28 17:32:00,
2013-04-28 13:33:00,67.0,37.0,30.34,ENE,67,2.0,7.0,33,0.00,,CLR,0.00,VWS V14.01,2013-04-28 17:33:00,
2013-04-28 13:34:00,67.0,36.2,30.34,ESE,112,6.0,9.0,32,0.00,,CLR,0.00,VWS V14.01,2013-04-28 17:34:00,
2013-04-28 13:35:00,66.0,36.1,30.34,East,90,4.0,9.0,33,0.00,,CLR,0.00,VWS V14.01,2013-04-28 17:35:00,
2013-04-28 13:37:00,66.0,36.1,30.34,SE,135,4.0,9.0,33,0.00,,CLR,0.00,VWS V14.01,2013-04-28 17:37:00,
2013-04-28 13:38:00,66.0,36.1,30.34,East,90,1.0,9.0,33,0.00,,CLR,0.00,VWS V14.01,2013-04-28 17:38:00,
2013-04-28 13:39:00,65.0,35.2,30.34,East,90,3.0,7.0,33,0.00,,CLR,0.00,VWS V14.01,2013-04-28 17:39:00,
2013-04-28 13:41:00,65.0,36.0,30.34,ESE,112,1.0,7.0,34,0.00,,CLR,0.00,VWS V14.01,2013-04-28 17:41:00,
2013-04-28 13:42:00,65.0,36.7,30.34,ENE,67,2.0,7.0,35,0.00,,CLR,0.00,VWS V14.01,2013-04-28 17:42:00,
2013-04-28 13:43:00,65.0,36.0,30.34,ESE,112,4.0,7.0,34,0.00,,CLR,0.00,VWS V14.01,2013-04-28 17:43:00,
2013-04-28 13:44:00,65.0,36.0,30.34,ESE,112,3.0,7.0,34,0.00,,CLR,0.00,VWS V14.01,2013-04-28 17:44:00,
2013-04-28 13:46:00,65.0,36.0,30.34,ESE,112,3.0,7.0,34,0.00,,CLR,0.00,VWS V14.01,2013-04-28 17:46:00,
2013-04-28 13:47:00,66.0,36.8,30.34,NE,45,4.0,7.0,34,0.00,,CLR,0.00,VWS V14.01,2013-04-28 17:47:00,
2013-04-28 13:48:00,66.0,36.1,30.34,East,90,0.0,7.0,33,0.00,,CLR,0.00,VWS V14.01,2013-04-28 17:48:00,
2013-04-28 13:49:00,66.0,36.1,30.34,ENE,67,4.0,6.0,33,0.00,,CLR,0.00,VWS V14.01,2013-04-28 17:49:00,
2013-04-28 13:51:00,66.0,36.1,30.34,SSE,157,3.0,6.0,33,0.00,,CLR,0.00,VWS V14.01,2013-04-28 17:51:00,
2013-04-28 13:52:00,66.0,36.1,30.33,ESE,112,1.0,6.0,33,0.00,,CLR,0.00,VWS V14.01,2013-04-28 17:52:00,
2013-04-28 13:53:00,66.0,36.8,30.33,East,90,1.0,6.0,34,0.00,,CLR,0.00,VWS V14.01,2013-04-28 17:53:00,
2013-04-28 13:54:00,66.0,36.1,30.33,ESE,112,4.0,6.0,33,0.00,,CLR,0.00,VWS V14.01,2013-04-28 17:54:00,
2013-04-28 13:56:00,66.0,36.1,30.33,ESE,112,5.0,7.0,33,0.00,,CLR,0.00,VWS V14.01,2013-04-28 17:56:00,
2013-04-28 13:57:00,66.0,36.8,30.33,ESE,112,8.0,9.0,34,0.00,,CLR,0.00,VWS V14.01,2013-04-28 17:57:00,
2013-04-28 13:58:00,66.0,37.6,30.33,ESE,112,4.0,12.0,35,0.00,,CLR,0.00,VWS V14.01,2013-04-28 17:58:00,
2013-04-28 13:59:00,65.0,36.7,30.33,SE,135,2.0,7.0,35,0.00,,CLR,0.00,VWS V14.01,2013-04-28 17:59:00,
2013-04-28 14:01:00,66.0,36.8,30.33,SE,135,0.0,7.0,34,0.00,,CLR,0.00,VWS V14.01,2013-04-28 18:01:00,
2013-04-28 14:02:00,66.0,36.8,30.33,ENE,67,1.0,7.0,34,0.00,,CLR,0.00,VWS V14.01,2013-04-28 18:02:00,
2013-04-28 14:03:00,66.0,36.8,30.33,ENE,67,4.0,7.0,34,0.00,,CLR,0.00,VWS V14.01,2013-04-28 18:03:00,
2013-04-28 14:04:00,66.0,36.8,30.33,East,90,3.0,7.0,34,0.00,,CLR,0.00,VWS V14.01,2013-04-28 18:04:00,
2013-04-28 14:07:00,66.0,36.1,30.33,ESE,112,4.0,9.0,33,0.00,,CLR,0.00,VWS V14.01,2013-04-28 18:07:00,
2013-04-28 14:08:00,66.0,36.8,30.33,SE,135,2.0,9.0,34,0.00,,CLR,0.00,VWS V14.01,2013-04-28 18:08:00,
2013-04-28 14:09:00,66.0,37.6,30.33,ESE,112,4.0,4.0,35,0.00,,CLR,0.00,VWS V14.01,2013-04-28 18:09:00,
2013-04-28 14:12:00,66.0,36.1,30.33,SE,135,0.0,8.0,33,0.00,,CLR,0.00,VWS V14.01,2013-04-28 18:12:00,
2013-04-28 14:13:00,66.0,36.8,30.33,ESE,112,2.0,8.0,34,0.00,,CLR,0.00,VWS V14.01,2013-04-28 18:13:00,
2013-04-28 14:14:00,66.0,36.1,30.33,ESE,112,1.0,8.0,33,0.00,,CLR,0.00,VWS V14.01,2013-04-28 18:14:00,
2013-04-28 14:17:00,67.0,36.2,30.33,East,90,2.0,9.0,32,0.00,,CLR,0.00,VWS V14.01,2013-04-28 18:17:00,
2013-04-28 14:18:00,66.0,36.1,30.33,East,90,1.0,9.0,33,0.00,,CLR,0.00,VWS V14.01,2013-04-28 18:18:00,
2013-04-28 14:19:00,66.0,36.1,30.33,ESE,112,2.0,2.0,33,0.00,,CLR,0.00,VWS V14.01,2013-04-28 18:19:00,
2013-04-28 14:23:00,67.0,37.0,30.33,SE,135,3.0,10.0,33,0.00,,CLR,0.00,VWS V14.01,2013-04-28 18:23:00,
2013-04-28 14:24:00,67.0,37.0,30.33,ESE,112,4.0,10.0,33,0.00,,CLR,0.00,VWS V14.01,2013-04-28 18:24:00,
2013-04-28 14:28:00,67.0,36.2,30.33,SSE,157,2.0,10.0,32,0.00,,CLR,0.00,VWS V14.01,2013-04-28 18:28:00,
2013-04-28 14:29:00,67.0,36.2,30.33,East,90,4.0,6.0,32,0.00,,CLR,0.00,VWS V14.01,2013-04-28 18:29:00,
2013-04-28 14:33:00,67.0,37.0,30.33,East,90,2.0,7.0,33,0.00,,CLR,0.00,VWS V14.01,2013-04-28 18:33:00,
2013-04-28 14:34:00,67.0,37.0,30.33,ESE,112,2.0,7.0,33,0.00,,CLR,0.00,VWS V14.01,2013-04-28 18:34:00,
2013-04-28 14:35:00,67.0,37.0,30.33,East,90,2.0,7.0,33,0.00,,CLR,0.00,VWS V14.01,2013-04-28 18:35:00,
2013-04-28 14:38:00,67.0,37.0,30.33,ESE,112,3.0,7.0,33,0.00,,CLR,0.00,VWS V14.01,2013-04-28 18:38:00,
2013-04-28 14:39:00,67.0,37.0,30.33,ESE,112,2.0,3.0,33,0.00,,CLR,0.00,VWS V14.01,2013-04-28 18:39:00,
2013-04-28 14:40:00,67.0,37.0,30.33,ESE,112,4.0,4.0,33,0.00,,CLR,0.00,VWS V14.01,2013-04-28 18:40:00,
2013-04-28 14:43:00,67.0,36.2,30.33,ESE,112,0.0,7.0,32,0.00,,CLR,0.00,VWS V14.01,2013-04-28 18:43:00,
2013-04-28 14:44:00,67.0,36.2,30.33,ESE,112,1.0,7.0,32,0.00,,CLR,0.00,VWS V14.01,2013-04-28 18:44:00,
2013-04-28 14:45:00,67.0,36.2,30.33,SSE,157,2.0,7.0,32,0.00,,CLR,0.00,VWS V14.01,2013-04-28 18:45:00,
2013-04-28 14:48:00,67.0,35.4,30.33,SE,135,2.0,2.0,31,0.00,,CLR,0.00,VWS V14.01,2013-04-28 18:48:00,
2013-04-28 14:49:00,67.0,35.4,30.33,SE,135,1.0,2.0,31,0.00,,CLR,0.00,VWS V14.01,2013-04-28 18:49:00,
2013-04-28 14:50:00,66.0,35.3,30.33,SE,135,2.0,2.0,32,0.00,,CLR,0.00,VWS V14.01,2013-04-28 18:50:00,
2013-04-28 14:54:00,66.0,36.1,30.32,SE,135,2.0,4.0,33,0.00,,CLR,0.00,VWS V14.01,2013-04-28 18:54:00,
2013-04-28 14:55:00,67.0,36.2,30.32,South,180,1.0,4.0,32,0.00,,CLR,0.00,VWS V14.01,2013-04-28 18:55:00,
2013-04-28 14:59:00,66.0,35.3,30.32,ENE,67,2.0,4.0,32,0.00,,CLR,0.00,VWS V14.01,2013-04-28 18:59:00,
2013-04-28 15:00:00,66.0,34.5,30.32,ESE,112,4.0,10.0,31,0.00,,CLR,0.00,VWS V14.01,2013-04-28 19:00:00,
2013-04-28 15:04:00,65.0,34.5,30.31,South,180,2.0,10.0,32,0.00,,CLR,0.00,VWS V14.01,2013-04-28 19:04:00,
2013-04-28 15:05:00,66.0,35.3,30.31,East,90,7.0,10.0,32,0.00,,CLR,0.00,VWS V14.01,2013-04-28 19:05:00,
2013-04-28 15:09:00,66.0,35.3,30.32,ESE,112,1.0,6.0,32,0.00,,CLR,0.00,VWS V14.01,2013-04-28 19:09:00,
2013-04-28 15:10:00,66.0,35.3,30.32,SE,135,1.0,6.0,32,0.00,,CLR,0.00,VWS V14.01,2013-04-28 19:10:00,
2013-04-28 15:14:00,66.0,35.3,30.31,SE,135,3.0,7.0,32,0.00,,CLR,0.00,VWS V14.01,2013-04-28 19:14:00,
2013-04-28 15:15:00,66.0,35.3,30.31,ESE,112,5.0,7.0,32,0.00,,CLR,0.00,VWS V14.01,2013-04-28 19:15:00,
2013-04-28 15:19:00,65.0,34.5,30.31,ESE,112,2.0,4.0,32,0.00,,CLR,0.00,VWS V14.01,2013-04-28 19:19:00,
2013-04-28 15:20:00,66.0,35.3,30.31,ESE,112,6.0,6.0,32,0.00,,CLR,0.00,VWS V14.01,2013-04-28 19:20:00,
2013-04-28 15:21:00,66.0,35.3,30.31,East,90,2.0,6.0,32,0.00,,CLR,0.00,VWS V14.01,2013-04-28 19:21:00,
2013-04-28 15:24:00,66.0,35.3,30.31,SE,135,2.0,6.0,32,0.00,,CLR,0.00,VWS V14.01,2013-04-28 19:24:00,
2013-04-28 15:25:00,67.0,37.0,30.31,ESE,112,0.0,6.0,33,0.00,,CLR,0.00,VWS V14.01,2013-04-28 19:25:00,
2013-04-28 15:26:00,67.0,37.0,30.31,East,90,2.0,6.0,33,0.00,,CLR,0.00,VWS V14.01,2013-04-28 19:26:00,
2013-04-28 15:30:00,67.0,35.4,30.31,SSE,157,2.0,4.0,31,0.00,,CLR,0.00,VWS V14.01,2013-04-28 19:30:00,
2013-04-28 15:31:00,67.0,35.4,30.31,SE,135,2.0,7.0,31,0.00,,CLR,0.00,VWS V14.01,2013-04-28 19:31:00,
2013-04-28 15:35:00,65.0,33.7,30.31,ESE,112,2.0,8.0,31,0.00,,CLR,0.00,VWS V14.01,2013-04-28 19:35:00,
2013-04-28 15:36:00,65.0,34.5,30.31,ESE,112,1.0,8.0,32,0.00,,CLR,0.00,VWS V14.01,2013-04-28 19:36:00,
2013-04-28 15:37:00,66.0,36.1,30.31,SE,135,2.0,8.0,33,0.00,,CLR,0.00,VWS V14.01,2013-04-28 19:37:00,
2013-04-28 15:40:00,65.0,36.0,30.31,ESE,112,6.0,7.0,34,0.00,,CLR,0.00,VWS V14.01,2013-04-28 19:40:00,
2013-04-28 15:41:00,65.0,36.0,30.31,SE,135,2.0,10.0,34,0.00,,CLR,0.00,VWS V14.01,2013-04-28 19:41:00,
2013-04-28 15:42:00,65.0,36.7,30.31,East,90,4.0,10.0,35,0.00,,CLR,0.00,VWS V14.01,2013-04-28 19:42:00,
2013-04-28 15:45:00,65.0,36.0,30.31,SSE,157,2.0,10.0,34,0.00,,CLR,0.00,VWS V14.01,2013-04-28 19:45:00,
2013-04-28 15:46:00,65.0,36.0,30.31,SE,135,4.0,10.0,34,0.00,,CLR,0.00,VWS V14.01,2013-04-28 19:46:00,
2013-04-28 15:47:00,65.0,34.5,30.31,SSE,157,3.0,10.0,32,0.00,,CLR,0.00,VWS V14.01,2013-04-28 19:47:00,
2013-04-28 15:50:00,66.0,34.5,30.31,ENE,67,4.0,7.0,31,0.00,,CLR,0.00,VWS V14.01,2013-04-28 19:50:00,
2013-04-28 15:51:00,66.0,34.5,30.31,ESE,112,6.0,7.0,31,0.00,,CLR,0.00,VWS V14.01,2013-04-28 19:51:00,
2013-04-28 15:52:00,65.0,34.5,30.31,SSE,157,2.0,7.0,32,0.00,,CLR,0.00,VWS V14.01,2013-04-28 19:52:00,
2013-04-28 15:53:00,65.0,34.5,30.31,SSE,157,1.0,7.0,32,0.00,,CLR,0.00,VWS V14.01,2013-04-28 19:53:00,
2013-04-28 15:55:00,65.0,35.2,30.31,ESE,112,2.0,7.0,33,0.00,,CLR,0.00,VWS V14.01,2013-04-28 19:55:00,
2013-04-28 15:56:00,65.0,35.2,30.31,East,90,5.0,7.0,33,0.00,,CLR,0.00,VWS V14.01,2013-04-28 19:56:00,
2013-04-28 15:57:00,65.0,35.2,30.30,ENE,67,2.0,7.0,33,0.00,,CLR,0.00,VWS V14.01,2013-04-28 19:57:00,
2013-04-28 15:58:00,66.0,35.3,30.30,ESE,112,2.0,7.0,32,0.00,,CLR,0.00,VWS V14.01,2013-04-28 19:58:00,
2013-04-28 16:00:00,66.0,35.3,30.30,ESE,112,0.0,4.0,32,0.00,,CLR,0.00,VWS V14.01,2013-04-28 20:00:00,
2013-04-28 16:01:00,66.0,36.1,30.30,SE,135,2.0,4.0,33,0.00,,CLR,0.00,VWS V14.01,2013-04-28 20:01:00,
2013-04-28 16:02:00,66.0,35.3,30.31,ESE,112,4.0,4.0,32,0.00,,CLR,0.00,VWS V14.01,2013-04-28 20:02:00,
2013-04-28 16:03:00,66.0,34.5,30.31,ESE,112,4.0,6.0,31,0.00,,CLR,0.00,VWS V14.01,2013-04-28 20:03:00,
2013-04-28 16:05:00,66.0,36.1,30.31,South,180,1.0,6.0,33,0.00,,CLR,0.00,VWS V14.01,2013-04-28 20:05:00,
2013-04-28 16:06:00,66.0,36.1,30.31,South,180,0.0,6.0,33,0.00,,CLR,0.00,VWS V14.01,2013-04-28 20:06:00,
2013-04-28 16:07:00,66.0,36.1,30.31,East,90,5.0,6.0,33,0.00,,CLR,0.00,VWS V14.01,2013-04-28 20:07:00,
2013-04-28 16:08:00,66.0,34.5,30.31,ESE,112,5.0,6.0,31,0.00,,CLR,0.00,VWS V14.01,2013-04-28 20:08:00,
2013-04-28 16:10:00,65.0,34.5,30.31,East,90,2.0,7.0,32,0.00,,CLR,0.00,VWS V14.01,2013-04-28 20:10:00,
2013-04-28 16:12:00,65.0,36.0,30.31,SE,135,2.0,7.0,34,0.00,,CLR,0.00,VWS V14.01,2013-04-28 20:12:00,
2013-04-28 16:13:00,65.0,35.2,30.31,ESE,112,2.0,7.0,33,0.00,,CLR,0.00,VWS V14.01,2013-04-28 20:13:00,
2013-04-28 16:16:00,65.0,35.2,30.31,ESE,112,2.0,9.0,33,0.00,,CLR,0.00,VWS V14.01,2013-04-28 20:16:00,
2013-04-28 16:17:00,65.0,35.2,30.31,South,180,0.0,9.0,33,0.00,,CLR,0.00,VWS V14.01,2013-04-28 20:17:00,
2013-04-28 16:18:00,66.0,37.6,30.30,SE,135,2.0,2.0,35,0.00,,CLR,0.00,VWS V14.01,2013-04-28 20:18:00,
2013-04-28 16:21:00,67.0,36.2,30.30,SE,135,1.0,2.0,32,0.00,,CLR,0.00,VWS V14.01,2013-04-28 20:21:00,
2013-04-28 16:22:00,66.0,34.5,30.30,SSE,157,2.0,7.0,31,0.00,,CLR,0.00,VWS V14.01,2013-04-28 20:22:00,
2013-04-28 16:23:00,66.0,34.5,30.30,SSW,202,2.0,7.0,31,0.00,,CLR,0.00,VWS V14.01,2013-04-28 20:23:00,
2013-04-28 16:26:00,66.0,34.5,30.30,SW,225,1.0,7.0,31,0.00,,CLR,0.00,VWS V14.01,2013-04-28 20:26:00,
2013-04-28 16:27:00,67.0,35.4,30.30,SSE,157,2.0,7.0,31,0.00,,CLR,0.00,VWS V14.01,2013-04-28 20:27:00,
2013-04-28 16:28:00,67.0,35.4,30.30,SSW,202,0.0,7.0,31,0.00,,CLR,0.00,VWS V14.01,2013-04-28 20:28:00,
2013-04-28 16:31:00,67.0,35.4,30.30,SE,135,2.0,6.0,31,0.00,,CLR,0.00,VWS V14.01,2013-04-28 20:31:00,
2013-04-28 16:32:00,67.0,36.2,30.30,East,90,5.0,6.0,32,0.00,,CLR,0.00,VWS V14.01,2013-04-28 20:32:00,
2013-04-28 16:33:00,66.0,35.3,30.30,South,180,1.0,6.0,32,0.00,,CLR,0.00,VWS V14.01,2013-04-28 20:33:00,
2013-04-28 16:37:00,66.0,36.1,30.30,East,90,1.0,6.0,33,0.00,,CLR,0.00,VWS V14.01,2013-04-28 20:37:00,
2013-04-28 16:38:00,66.0,35.3,30.30,SE,135,1.0,6.0,32,0.00,,CLR,0.00,VWS V14.01,2013-04-28 20:38:00,
2013-04-28 16:39:00,66.0,35.3,30.30,SE,135,2.0,2.0,32,0.00,,CLR,0.00,VWS V14.01,2013-04-28 20:39:00,
2013-04-28 16:42:00,65.0,34.5,30.30,ESE,112,2.0,7.0,32,0.00,,CLR,0.00,VWS V14.01,2013-04-28 20:42:00,
2013-04-28 16:43:00,65.0,34.5,30.30,East,90,3.0,7.0,32,0.00,,CLR,0.00,VWS V14.01,2013-04-28 20:43:00,
2013-04-28 16:44:00,65.0,35.2,30.30,SE,135,1.0,7.0,33,0.00,,CLR,0.00,VWS V14.01,2013-04-28 20:44:00,
2013-04-28 16:46:00,66.0,35.3,30.30,East,90,2.0,7.0,32,0.00,,CLR,0.00,VWS V14.01,2013-04-28 20:46:00,
2013-04-28 16:48:00,65.0,34.5,30.30,ESE,112,1.0,7.0,32,0.00,,CLR,0.00,VWS V14.01,2013-04-28 20:48:00,
2013-04-28 16:49:00,65.0,34.5,30.30,SE,135,2.0,3.0,32,0.00,,CLR,0.00,VWS V14.01,2013-04-28 20:49:00,
2013-04-28 16:52:00,65.0,34.5,30.30,South,180,0.0,3.0,32,0.00,,CLR,0.00,VWS V14.01,2013-04-28 20:52:00,
2013-04-28 16:53:00,65.0,36.7,30.30,ESE,112,2.0,7.0,35,0.00,,CLR,0.00,VWS V14.01,2013-04-28 20:53:00,
2013-04-28 16:54:00,65.0,35.2,30.30,ESE,112,6.0,8.0,33,0.00,,CLR,0.00,VWS V14.01,2013-04-28 20:54:00,
2013-04-28 16:55:00,65.0,35.2,30.30,SE,135,1.0,8.0,33,0.00,,CLR,0.00,VWS V14.01,2013-04-28 20:55:00,
2013-04-28 16:57:00,66.0,35.3,30.30,ESE,112,2.0,8.0,32,0.00,,CLR,0.00,VWS V14.01,2013-04-28 20:57:00,
2013-04-28 16:58:00,65.0,35.2,30.30,SE,135,2.0,8.0,33,0.00,,CLR,0.00,VWS V14.01,2013-04-28 20:58:00,
2013-04-28 16:59:00,65.0,35.2,30.30,South,180,0.0,2.0,33,0.00,,CLR,0.00,VWS V14.01,2013-04-28 20:59:00,
2013-04-28 17:00:00,65.0,35.2,30.30,East,90,2.0,4.0,33,0.00,,CLR,0.00,VWS V14.01,2013-04-28 21:00:00,
2013-04-28 17:02:00,66.0,36.1,30.30,SE,135,0.0,4.0,33,0.00,,CLR,0.00,VWS V14.01,2013-04-28 21:02:00,
2013-04-28 17:03:00,66.0,35.3,30.30,SE,135,0.0,4.0,32,0.00,,CLR,0.00,VWS V14.01,2013-04-28 21:03:00,
2013-04-28 17:04:00,66.0,35.3,30.30,East,90,1.0,4.0,32,0.00,,CLR,0.00,VWS V14.01,2013-04-28 21:04:00,
2013-04-28 17:05:00,66.0,36.1,30.30,ESE,112,2.0,4.0,33,0.00,,CLR,0.00,VWS V14.01,2013-04-28 21:05:00,
2013-04-28 17:07:00,66.0,36.1,30.30,East,90,0.0,4.0,33,0.00,,CLR,0.00,VWS V14.01,2013-04-28 21:07:00,
2013-04-28 17:08:00,66.0,36.1,30.30,ESE,112,2.0,2.0,33,0.00,,CLR,0.00,VWS V14.01,2013-04-28 21:08:00,
2013-04-28 17:09:00,66.0,36.1,30.30,ESE,112,2.0,2.0,33,0.00,,CLR,0.00,VWS V14.01,2013-04-28 21:09:00,
2013-04-28 17:10:00,65.0,35.2,30.30,SE,135,0.0,5.0,33,0.00,,CLR,0.00,VWS V14.01,2013-04-28 21:10:00,
2013-04-28 17:12:00,66.0,36.1,30.30,ESE,112,2.0,5.0,33,0.00,,CLR,0.00,VWS V14.01,2013-04-28 21:12:00,
2013-04-28 17:13:00,65.0,36.0,30.30,SSE,157,3.0,5.0,34,0.00,,CLR,0.00,VWS V14.01,2013-04-28 21:13:00,
2013-04-28 17:14:00,66.0,36.1,30.30,SE,135,1.0,5.0,33,0.00,,CLR,0.00,VWS V14.01,2013-04-28 21:14:00,
2013-04-28 17:15:00,65.0,35.2,30.30,ESE,112,2.0,5.0,33,0.00,,CLR,0.00,VWS V14.01,2013-04-28 21:15:00,
2013-04-28 17:16:00,65.0,35.2,30.30,ESE,112,2.0,7.0,33,0.00,,CLR,0.00,VWS V14.01,2013-04-28 21:16:00,
2013-04-28 17:18:00,64.0,34.3,30.31,East,90,2.0,7.0,33,0.00,,CLR,0.00,VWS V14.01,2013-04-28 21:18:00,
2013-04-28 17:19:00,64.0,35.1,30.31,ESE,112,4.0,4.0,34,0.00,,CLR,0.00,VWS V14.01,2013-04-28 21:19:00,
2013-04-28 17:20:00,64.0,35.8,30.31,ESE,112,0.0,4.0,35,0.00,,CLR,0.00,VWS V14.01,2013-04-28 21:20:00,
2013-04-28 17:21:00,64.0,35.1,30.31,ESE,112,3.0,4.0,34,0.00,,CLR,0.00,VWS V14.01,2013-04-28 21:21:00,
2013-04-28 17:23:00,64.0,35.1,30.30,SSE,157,2.0,7.0,34,0.00,,CLR,0.00,VWS V14.01,2013-04-28 21:23:00,
2013-04-28 17:24:00,64.0,35.1,30.30,SE,135,1.0,7.0,34,0.00,,CLR,0.00,VWS V14.01,2013-04-28 21:24:00,
2013-04-28 17:25:00,64.0,35.8,30.30,ESE,112,2.0,7.0,35,0.00,,CLR,0.00,VWS V14.01,2013-04-28 21:25:00,
2013-04-28 17:26:00,64.0,35.8,30.30,SSE,157,1.0,7.0,35,0.00,,CLR,0.00,VWS V14.01,2013-04-28 21:26:00,
2013-04-28 17:28:00,64.0,35.1,30.31,ESE,112,2.0,2.0,34,0.00,,CLR,0.00,VWS V14.01,2013-04-28 21:28:00,
2013-04-28 17:29:00,64.0,35.1,30.31,East,90,7.0,7.0,34,0.00,,CLR,0.00,VWS V14.01,2013-04-28 21:29:00,
2013-04-28 17:30:00,64.0,35.1,30.31,East,90,2.0,7.0,34,0.00,,CLR,0.00,VWS V14.01,2013-04-28 21:30:00,
2013-04-28 17:31:00,64.0,35.1,30.31,ESE,112,4.0,8.0,34,0.00,,CLR,0.00,VWS V14.01,2013-04-28 21:31:00,
2013-04-28 17:33:00,63.0,34.9,30.31,SE,135,0.0,8.0,35,0.00,,CLR,0.00,VWS V14.01,2013-04-28 21:33:00,
2013-04-28 17:34:00,63.0,35.7,30.31,SE,135,0.0,8.0,36,0.00,,CLR,0.00,VWS V14.01,2013-04-28 21:34:00,
2013-04-28 17:35:00,63.0,34.9,30.31,East,90,2.0,8.0,35,0.00,,CLR,0.00,VWS V14.01,2013-04-28 21:35:00,
2013-04-28 17:36:00,63.0,34.9,30.31,North,360,0.0,8.0,35,0.00,,CLR,0.00,VWS V14.01,2013-04-28 21:36:00,
2013-04-28 17:39:00,64.0,35.1,30.31,SE,135,2.0,3.0,34,0.00,,CLR,0.00,VWS V14.01,2013-04-28 21:39:00,
2013-04-28 17:40:00,64.0,35.8,30.31,SSE,157,0.0,3.0,35,0.00,,CLR,0.00,VWS V14.01,2013-04-28 21:40:00,
2013-04-28 17:42:00,65.0,36.7,30.31,SSW,202,0.0,3.0,35,0.00,,CLR,0.00,VWS V14.01,2013-04-28 21:42:00,
2013-04-28 17:44:00,65.0,36.0,30.31,East,90,1.0,5.0,34,0.00,,CLR,0.00,VWS V14.01,2013-04-28 21:44:00,
2013-04-28 17:45:00,64.0,35.1,30.31,South,180,1.0,5.0,34,0.00,,CLR,0.00,VWS V14.01,2013-04-28 21:45:00,
2013-04-28 17:46:00,65.0,36.0,30.31,SSE,157,1.0,5.0,34,0.00,,CLR,0.00,VWS V14.01,2013-04-28 21:46:00,
2013-04-28 17:47:00,65.0,36.0,30.31,ESE,112,2.0,5.0,34,0.00,,CLR,0.00,VWS V14.01,2013-04-28 21:47:00,
2013-04-28 17:49:00,64.0,35.1,30.31,ESE,112,1.0,8.0,34,0.00,,CLR,0.00,VWS V14.01,2013-04-28 21:49:00,
2013-04-28 17:50:00,64.0,36.5,30.31,SSW,202,0.0,8.0,36,0.00,,CLR,0.00,VWS V14.01,2013-04-28 21:50:00,
2013-04-28 17:51:00,64.0,35.8,30.31,ESE,112,2.0,8.0,35,0.00,,CLR,0.00,VWS V14.01,2013-04-28 21:51:00,
2013-04-28 17:52:00,64.0,35.8,30.30,ESE,112,2.0,8.0,35,0.00,,CLR,0.00,VWS V14.01,2013-04-28 21:52:00,
2013-04-28 17:54:00,63.0,35.7,30.30,East,90,4.0,11.0,36,0.00,,CLR,0.00,VWS V14.01,2013-04-28 21:54:00,
2013-04-28 17:55:00,63.0,36.3,30.30,ESE,112,4.0,11.0,37,0.00,,CLR,0.00,VWS V14.01,2013-04-28 21:55:00,
2013-04-28 17:56:00,62.0,35.5,30.30,SE,135,1.0,11.0,37,0.00,,CLR,0.00,VWS V14.01,2013-04-28 21:56:00,
2013-04-28 17:57:00,62.0,35.5,30.30,ENE,67,1.0,11.0,37,0.00,,CLR,0.00,VWS V14.01,2013-04-28 21:57:00,
2013-04-28 17:59:00,63.0,36.3,30.30,East,90,7.0,8.0,37,0.00,,CLR,0.00,VWS V14.01,2013-04-28 21:59:00,
2013-04-28 18:00:00,63.0,36.3,30.30,East,90,2.0,8.0,37,0.00,,CLR,0.00,VWS V14.01,2013-04-28 22:00:00,
2013-04-28 18:02:00,63.0,37.0,30.30,ESE,112,2.0,8.0,38,0.00,,CLR,0.00,VWS V14.01,2013-04-28 22:02:00,
2013-04-28 18:04:00,63.0,36.3,30.30,ESE,112,2.0,8.0,37,0.00,,CLR,0.00,VWS V14.01,2013-04-28 22:04:00,
2013-04-28 18:05:00,63.0,36.3,30.30,ESE,112,0.0,8.0,37,0.00,,CLR,0.00,VWS V14.01,2013-04-28 22:05:00,
2013-04-28 18:07:00,63.0,36.3,30.30,SE,135,2.0,8.0,37,0.00,,CLR,0.00,VWS V14.01,2013-04-28 22:07:00,
2013-04-28 18:09:00,62.0,36.1,30.30,SE,135,1.0,2.0,38,0.00,,CLR,0.00,VWS V14.01,2013-04-28 22:09:00,
2013-04-28 18:10:00,62.0,36.1,30.30,SE,135,1.0,2.0,38,0.00,,CLR,0.00,VWS V14.01,2013-04-28 22:10:00,
2013-04-28 18:12:00,63.0,37.0,30.30,ESE,112,1.0,2.0,38,0.00,,CLR,0.00,VWS V14.01,2013-04-28 22:12:00,
2013-04-28 18:15:00,62.0,36.1,30.30,SSW,202,2.0,4.0,38,0.00,,CLR,0.00,VWS V14.01,2013-04-28 22:15:00,
2013-04-28 18:16:00,62.0,36.1,30.30,South,180,0.0,4.0,38,0.00,,CLR,0.00,VWS V14.01,2013-04-28 22:16:00,
2013-04-28 18:17:00,63.0,36.3,30.30,ENE,67,4.0,4.0,37,0.00,,CLR,0.00,VWS V14.01,2013-04-28 22:17:00,
2013-04-28 18:20:00,63.0,37.0,30.30,SE,135,1.0,2.0,38,0.00,,CLR,0.00,VWS V14.01,2013-04-28 22:20:00,
2013-04-28 18:21:00,63.0,36.3,30.30,ESE,112,1.0,4.0,37,0.00,,CLR,0.00,VWS V14.01,2013-04-28 22:21:00,
2013-04-28 18:22:00,63.0,37.0,30.30,SSE,157,0.0,4.0,38,0.00,,CLR,0.00,VWS V14.01,2013-04-28 22:22:00,
2013-04-28 18:25:00,62.0,36.8,30.30,NE,45,1.0,4.0,39,0.00,,CLR,0.00,VWS V14.01,2013-04-28 22:25:00,
2013-04-28 18:26:00,62.0,36.8,30.30,SE,135,2.0,4.0,39,0.00,,CLR,0.00,VWS V14.01,2013-04-28 22:26:00,
2013-04-28 18:27:00,62.0,36.8,30.30,ESE,112,1.0,6.0,39,0.00,,CLR,0.00,VWS V14.01,2013-04-28 22:27:00,
2013-04-28 18:30:00,62.0,36.8,30.30,ESE,112,1.0,3.0,39,0.00,,CLR,0.00,VWS V14.01,2013-04-28 22:30:00,
2013-04-28 18:31:00,61.0,36.5,30.30,ESE,112,1.0,3.0,40,0.00,,CLR,0.00,VWS V14.01,2013-04-28 22:31:00,
2013-04-28 18:32:00,61.0,35.9,30.30,SE,135,0.0,3.0,39,0.00,,CLR,0.00,VWS V14.01,2013-04-28 22:32:00,
2013-04-28 18:35:00,61.0,36.5,30.30,SE,135,0.0,3.0,40,0.00,,CLR,0.00,VWS V14.01,2013-04-28 22:35:00,
2013-04-28 18:36:00,61.0,36.5,30.30,SE,135,0.0,3.0,40,0.00,,CLR,0.00,VWS V14.01,2013-04-28 22:36:00,
2013-04-28 18:37:00,61.0,35.9,30.30,NNE,22,0.0,3.0,39,0.00,,CLR,0.00,VWS V14.01,2013-04-28 22:37:00,
2013-04-28 18:40:00,61.0,36.5,30.30,East,90,0.0,2.0,40,0.00,,CLR,0.00,VWS V14.01,2013-04-28 22:40:00,
2013-04-28 18:41:00,61.0,37.2,30.30,East,90,0.0,2.0,41,0.00,,CLR,0.00,VWS V14.01,2013-04-28 22:41:00,
2013-04-28 18:42:00,61.0,36.5,30.30,East,90,1.0,3.0,40,0.00,,CLR,0.00,VWS V14.01,2013-04-28 22:42:00,
2013-04-28 18:45:00,60.0,35.6,30.30,SE,135,1.0,7.0,40,0.00,,CLR,0.00,VWS V14.01,2013-04-28 22:45:00,
2013-04-28 18:46:00,60.0,36.2,30.30,SE,135,2.0,7.0,41,0.00,,CLR,0.00,VWS V14.01,2013-04-28 22:46:00,
2013-04-28 18:47:00,60.0,36.2,30.29,ESE,112,1.0,7.0,41,0.00,,CLR,0.00,VWS V14.01,2013-04-28 22:47:00,
2013-04-28 18:48:00,60.0,36.2,30.29,ESE,112,2.0,7.0,41,0.00,,CLR,0.00,VWS V14.01,2013-04-28 22:48:00,
2013-04-28 18:50:00,60.0,36.9,30.29,ESE,112,0.0,2.0,42,0.00,,CLR,0.00,VWS V14.01,2013-04-28 22:50:00,
2013-04-28 18:51:00,60.0,36.9,30.29,East,90,2.0,6.0,42,0.00,,CLR,0.00,VWS V14.01,2013-04-28 22:51:00,
2013-04-28 18:53:00,60.0,36.2,30.29,ESE,112,2.0,6.0,41,0.00,,CLR,0.00,VWS V14.01,2013-04-28 22:53:00,
2013-04-28 18:55:00,59.0,35.3,30.29,SE,135,0.0,6.0,41,0.00,,CLR,0.00,VWS V14.01,2013-04-28 22:55:00,
2013-04-28 18:56:00,59.0,35.3,30.29,SE,135,0.0,6.0,41,0.00,,CLR,0.00,VWS V14.01,2013-04-28 22:56:00,
2013-04-28 18:58:00,59.0,35.3,30.29,ESE,112,1.0,6.0,41,0.00,,CLR,0.00,VWS V14.01,2013-04-28 22:58:00,
2013-04-28 19:01:00,59.0,35.3,30.29,East,90,1.0,4.0,41,0.00,,CLR,0.00,VWS V14.01,2013-04-28 23:01:00,
2013-04-28 19:03:00,59.0,35.3,30.29,SE,135,0.0,4.0,41,0.00,,CLR,0.00,VWS V14.01,2013-04-28 23:03:00,
2013-04-28 19:06:00,59.0,35.3,30.29,South,180,0.0,4.0,41,0.00,,CLR,0.00,VWS V14.01,2013-04-28 23:06:00,
2013-04-28 19:08:00,58.0,34.5,30.28,East,90,5.0,7.0,41,0.00,,CLR,0.00,VWS V14.01,2013-04-28 23:08:00,
2013-04-28 19:11:00,58.0,35.1,30.28,East,90,2.0,2.0,42,0.00,,CLR,0.00,VWS V14.01,2013-04-28 23:11:00,
2013-04-28 19:13:00,58.0,35.1,30.28,ESE,112,0.0,2.0,42,0.00,,CLR,0.00,VWS V14.01,2013-04-28 23:13:00,
2013-04-28 19:16:00,58.0,35.1,30.28,ESE,112,0.0,2.0,42,0.00,,CLR,0.00,VWS V14.01,2013-04-28 23:16:00,
2013-04-28 19:18:00,58.0,35.1,30.28,ESE,112,1.0,2.0,42,0.00,,CLR,0.00,VWS V14.01,2013-04-28 23:18:00,
2013-04-28 19:21:00,58.0,35.7,30.28,ESE,112,1.0,7.0,43,0.00,,CLR,0.00,VWS V14.01,2013-04-28 23:21:00,
2013-04-28 19:22:00,58.0,35.7,30.28,ESE,112,0.0,7.0,43,0.00,,CLR,0.00,VWS V14.01,2013-04-28 23:22:00,
2013-04-28 19:23:00,58.0,35.7,30.28,ESE,112,1.0,7.0,43,0.00,,CLR,0.00,VWS V14.01,2013-04-28 23:23:00,
2013-04-28 19:26:00,57.0,34.8,30.28,ESE,112,2.0,7.0,43,0.00,,CLR,0.00,VWS V14.01,2013-04-28 23:26:00,
2013-04-28 19:27:00,57.0,34.8,30.28,ESE,112,2.0,7.0,43,0.00,,CLR,0.00,VWS V14.01,2013-04-28 23:27:00,
2013-04-28 19:28:00,57.0,34.8,30.28,ESE,112,1.0,7.0,43,0.00,,CLR,0.00,VWS V14.01,2013-04-28 23:28:00,
2013-04-28 19:31:00,57.0,35.3,30.28,East,90,0.0,2.0,44,0.00,,CLR,0.00,VWS V14.01,2013-04-28 23:31:00,
2013-04-28 19:32:00,57.0,35.3,30.28,East,90,0.0,2.0,44,0.00,,CLR,0.00,VWS V14.01,2013-04-28 23:32:00,
2013-04-28 19:33:00,57.0,35.3,30.28,East,90,0.0,3.0,44,0.00,,CLR,0.00,VWS V14.01,2013-04-28 23:33:00,
2013-04-28 19:34:00,57.0,35.3,30.28,East,90,0.0,3.0,44,0.00,,CLR,0.00,VWS V14.01,2013-04-28 23:34:00,
2013-04-28 19:36:00,57.0,35.3,30.28,East,90,1.0,3.0,44,0.00,,CLR,0.00,VWS V14.01,2013-04-28 23:36:00,
2013-04-28 19:37:00,57.0,35.3,30.28,East,90,2.0,3.0,44,0.00,,CLR,0.00,VWS V14.01,2013-04-28 23:37:00,
2013-04-28 19:38:00,57.0,35.9,30.28,ESE,112,0.0,3.0,45,0.00,,CLR,0.00,VWS V14.01,2013-04-28 23:38:00,
2013-04-28 19:39:00,57.0,35.9,30.28,ESE,112,0.0,0.0,45,0.00,,CLR,0.00,VWS V14.01,2013-04-28 23:39:00,
2013-04-28 19:41:00,57.0,35.9,30.28,SE,135,0.0,2.0,45,0.00,,CLR,0.00,VWS V14.01,2013-04-28 23:41:00,
2013-04-28 19:42:00,57.0,35.9,30.28,SE,135,0.0,2.0,45,0.00,,CLR,0.00,VWS V14.01,2013-04-28 23:42:00,
2013-04-28 19:43:00,57.0,36.4,30.28,SE,135,0.0,2.0,46,0.00,,CLR,0.00,VWS V14.01,2013-04-28 23:43:00,
2013-04-28 19:44:00,56.0,35.5,30.28,SE,135,0.0,2.0,46,0.00,,CLR,0.00,VWS V14.01,2013-04-28 23:44:00,
2013-04-28 19:47:00,56.0,35.5,30.28,ESE,112,0.0,2.0,46,0.00,,CLR,0.00,VWS V14.01,2013-04-28 23:47:00,
2013-04-28 19:49:00,56.0,36.1,30.28,ESE,112,0.0,0.0,47,0.00,,CLR,0.00,VWS V14.01,2013-04-28 23:49:00,
2013-04-28 19:52:00,56.0,36.1,30.28,ESE,112,1.0,1.0,47,0.00,,CLR,0.00,VWS V14.01,2013-04-28 23:52:00,
2013-04-28 19:53:00,56.0,36.1,30.28,ESE,112,0.0,2.0,47,0.00,,CLR,0.00,VWS V14.01,2013-04-28 23:53:00,
2013-04-28 19:54:00,56.0,36.1,30.28,ESE,112,0.0,2.0,47,0.00,,CLR,0.00,VWS V14.01,2013-04-28 23:54:00,
2013-04-28 19:57:00,56.0,36.6,30.27,WNW,292,0.0,2.0,48,0.00,,CLR,0.00,VWS V14.01,2013-04-28 23:57:00,
2013-04-28 19:58:00,56.0,36.6,30.27,WNW,292,0.0,2.0,48,0.00,,CLR,0.00,VWS V14.01,2013-04-28 23:58:00,
2013-04-28 19:59:00,55.0,36.2,30.27,East,90,1.0,2.0,49,0.00,,CLR,0.00,VWS V14.01,2013-04-28 23:59:00,
2013-04-28 20:02:00,56.0,37.1,30.27,ESE,112,0.0,2.0,49,0.00,,CLR,0.00,VWS V14.01,2013-04-29 00:02:00,
2013-04-28 20:03:00,56.0,37.1,30.27,ESE,112,0.0,2.0,49,0.00,,CLR,0.00,VWS V14.01,2013-04-29 00:03:00,
2013-04-28 20:04:00,55.0,36.2,30.27,SE,135,2.0,2.0,49,0.00,,CLR,0.00,VWS V14.01,2013-04-29 00:04:00,
2013-04-28 20:07:00,55.0,36.2,30.27,SE,135,0.0,2.0,49,0.00,,CLR,0.00,VWS V14.01,2013-04-29 00:07:00,
2013-04-28 20:08:00,55.0,36.2,30.27,SE,135,0.0,2.0,49,0.00,,CLR,0.00,VWS V14.01,2013-04-29 00:08:00,
2013-04-28 20:09:00,55.0,36.7,30.27,ESE,112,2.0,2.0,50,0.00,,CLR,0.00,VWS V14.01,2013-04-29 00:09:00,
2013-04-28 20:12:00,55.0,36.7,30.27,ESE,112,0.0,2.0,50,0.00,,CLR,0.00,VWS V14.01,2013-04-29 00:12:00,
2013-04-28 20:13:00,55.0,36.7,30.27,ESE,112,0.0,2.0,50,0.00,,CLR,0.00,VWS V14.01,2013-04-29 00:13:00,
2013-04-28 20:14:00,55.0,36.7,30.27,ESE,112,2.0,2.0,50,0.00,,CLR,0.00,VWS V14.01,2013-04-29 00:14:00,
2013-04-28 20:15:00,55.0,36.7,30.27,ESE,112,0.0,2.0,50,0.00,,CLR,0.00,VWS V14.01,2013-04-29 00:15:00,
2013-04-28 20:18:00,55.0,36.7,30.27,ESE,112,1.0,2.0,50,0.00,,CLR,0.00,VWS V14.01,2013-04-29 00:18:00,
2013-04-28 20:20:00,55.0,37.2,30.27,ESE,112,0.0,2.0,51,0.00,,CLR,0.00,VWS V14.01,2013-04-29 00:20:00,
2013-04-28 20:23:00,54.0,36.3,30.27,ESE,112,0.0,2.0,51,0.00,,CLR,0.00,VWS V14.01,2013-04-29 00:23:00,
2013-04-28 20:25:00,54.0,36.8,30.27,ESE,112,0.0,2.0,52,0.00,,CLR,0.00,VWS V14.01,2013-04-29 00:25:00,
2013-04-28 20:28:00,54.0,36.8,30.27,ESE,112,0.0,2.0,52,0.00,,CLR,0.00,VWS V14.01,2013-04-29 00:28:00,
2013-04-28 20:29:00,54.0,36.8,30.27,ESE,112,0.0,0.0,52,0.00,,CLR,0.00,VWS V14.01,2013-04-29 00:29:00,
2013-04-28 20:30:00,54.0,37.3,30.27,ESE,112,0.0,0.0,53,0.00,,CLR,0.00,VWS V14.01,2013-04-29 00:30:00,
2013-04-28 20:33:00,54.0,37.8,30.27,ESE,112,0.0,0.0,54,0.00,,CLR,0.00,VWS V14.01,2013-04-29 00:33:00,
2013-04-28 20:34:00,54.0,37.8,30.27,ESE,112,1.0,1.0,54,0.00,,CLR,0.00,VWS V14.01,2013-04-29 00:34:00,
2013-04-28 20:35:00,54.0,37.8,30.27,ESE,112,1.0,2.0,54,0.00,,CLR,0.00,VWS V14.01,2013-04-29 00:35:00,
2013-04-28 20:38:00,54.0,38.2,30.27,ESE,112,0.0,0.0,55,0.00,,CLR,0.00,VWS V14.01,2013-04-29 00:38:00,
2013-04-28 20:39:00,53.0,36.8,30.27,ESE,112,0.0,0.0,54,0.00,,CLR,0.00,VWS V14.01,2013-04-29 00:39:00,
2013-04-28 20:40:00,53.0,36.8,30.27,ESE,112,0.0,0.0,54,0.00,,CLR,0.00,VWS V14.01,2013-04-29 00:40:00,
2013-04-28 20:43:00,53.0,37.3,30.27,ESE,112,0.0,0.0,55,0.00,,CLR,0.00,VWS V14.01,2013-04-29 00:43:00,
2013-04-28 20:44:00,53.0,37.3,30.27,ESE,112,0.0,0.0,55,0.00,,CLR,0.00,VWS V14.01,2013-04-29 00:44:00,
2013-04-28 20:45:00,53.0,37.7,30.27,ESE,112,0.0,0.0,56,0.00,,CLR,0.00,VWS V14.01,2013-04-29 00:45:00,
2013-04-28 20:48:00,53.0,37.7,30.27,ESE,112,0.0,0.0,56,0.00,,CLR,0.00,VWS V14.01,2013-04-29 00:48:00,
2013-04-28 20:49:00,53.0,37.7,30.27,ESE,112,0.0,0.0,56,0.00,,CLR,0.00,VWS V14.01,2013-04-29 00:49:00,
2013-04-28 20:50:00,53.0,38.2,30.27,East,90,0.0,2.0,57,0.00,,CLR,0.00,VWS V14.01,2013-04-29 00:50:00,
2013-04-28 20:51:00,53.0,38.2,30.27,East,90,0.0,2.0,57,0.00,,CLR,0.00,VWS V14.01,2013-04-29 00:51:00,
2013-04-28 20:54:00,53.0,38.6,30.27,East,90,0.0,2.0,58,0.00,,CLR,0.00,VWS V14.01,2013-04-29 00:54:00,
2013-04-28 20:56:00,52.0,37.7,30.27,East,90,0.0,2.0,58,0.00,,CLR,0.00,VWS V14.01,2013-04-29 00:56:00,
2013-04-28 20:59:00,52.0,38.1,30.27,NNW,337,0.0,0.0,59,0.00,,CLR,0.00,VWS V14.01,2013-04-29 00:59:00,
2013-04-28 21:00:00,49.0,38.5,30.28,ENE,67,0.0,0.0,67,0.00,,CLR,0.00,VWS V14.01,2013-04-29 01:00:00,
2013-04-28 21:01:00,52.0,38.1,30.27,NNW,337,0.0,0.0,59,0.00,,CLR,0.00,VWS V14.01,2013-04-29 01:01:00,
2013-04-28 21:04:00,52.0,38.1,30.27,NNW,337,0.0,0.0,59,0.00,,CLR,0.00,VWS V14.01,2013-04-29 01:04:00,
2013-04-28 21:05:00,52.0,38.1,30.27,NNW,337,0.0,0.0,59,0.00,,CLR,0.00,VWS V14.01,2013-04-29 01:05:00,
2013-04-28 21:06:00,52.0,38.1,30.27,ENE,67,0.0,1.0,59,0.00,,CLR,0.00,VWS V14.01,2013-04-29 01:06:00,
2013-04-28 21:09:00,52.0,38.6,30.27,ENE,67,0.0,0.0,60,0.00,,CLR,0.00,VWS V14.01,2013-04-29 01:09:00,
2013-04-28 21:10:00,52.0,38.6,30.27,ENE,67,0.0,0.0,60,0.00,,CLR,0.00,VWS V14.01,2013-04-29 01:10:00,
2013-04-28 21:11:00,52.0,38.6,30.27,ENE,67,0.0,0.0,60,0.00,,CLR,0.00,VWS V14.01,2013-04-29 01:11:00,
2013-04-28 21:14:00,51.0,38.0,30.28,ENE,67,0.0,0.0,61,0.00,,CLR,0.00,VWS V14.01,2013-04-29 01:14:00,
2013-04-28 21:15:00,51.0,38.5,30.28,ENE,67,0.0,0.0,62,0.00,,CLR,0.00,VWS V14.01,2013-04-29 01:15:00,
2013-04-28 21:16:00,51.0,38.5,30.28,ENE,67,0.0,0.0,62,0.00,,CLR,0.00,VWS V14.01,2013-04-29 01:16:00,
2013-04-28 21:19:00,51.0,38.5,30.28,ENE,67,0.0,0.0,62,0.00,,CLR,0.00,VWS V14.01,2013-04-29 01:19:00,
2013-04-28 21:20:00,51.0,38.5,30.28,ENE,67,0.0,0.0,62,0.00,,CLR,0.00,VWS V14.01,2013-04-29 01:20:00,
2013-04-28 21:21:00,51.0,38.5,30.28,ENE,67,0.0,0.0,62,0.00,,CLR,0.00,VWS V14.01,2013-04-29 01:21:00,
2013-04-28 21:24:00,51.0,38.9,30.28,ENE,67,0.0,0.0,63,0.00,,CLR,0.00,VWS V14.01,2013-04-29 01:24:00,
2013-04-28 21:25:00,51.0,38.9,30.28,ENE,67,0.0,0.0,63,0.00,,CLR,0.00,VWS V14.01,2013-04-29 01:25:00,
2013-04-28 21:27:00,51.0,38.9,30.28,ENE,67,0.0,0.0,63,0.00,,CLR,0.00,VWS V14.01,2013-04-29 01:27:00,
2013-04-28 21:30:00,49.0,38.2,30.28,ENE,67,0.0,0.0,66,0.00,,CLR,0.00,VWS V14.01,2013-04-29 01:30:00,
2013-04-28 21:40:00,49.0,37.8,30.28,ENE,67,0.0,0.0,65,0.00,,CLR,0.00,VWS V14.01,2013-04-29 01:40:00,
2013-04-28 21:50:00,48.0,38.0,30.28,ENE,67,0.0,0.0,68,0.00,,CLR,0.00,VWS V14.01,2013-04-29 01:50:00,
2013-04-28 22:00:00,47.0,38.1,30.28,ENE,67,0.0,0.0,71,0.00,,CLR,0.00,VWS V14.01,2013-04-29 02:00:00,
2013-04-28 22:10:00,47.0,37.7,30.28,ENE,67,0.0,0.0,70,0.00,,CLR,0.00,VWS V14.01,2013-04-29 02:10:00,
2013-04-28 22:20:00,47.0,38.1,30.28,ENE,67,0.0,0.0,71,0.00,,CLR,0.00,VWS V14.01,2013-04-29 02:20:00,
2013-04-28 22:30:00,46.0,36.0,30.28,ENE,67,0.0,0.0,68,0.00,,CLR,0.00,VWS V14.01,2013-04-29 02:30:00,
2013-04-28 22:40:00,47.0,37.4,30.28,ENE,67,0.0,0.0,69,0.00,,CLR,0.00,VWS V14.01,2013-04-29 02:40:00,
2013-04-28 22:50:00,47.0,37.0,30.28,ENE,67,0.0,0.0,68,0.00,,CLR,0.00,VWS V14.01,2013-04-29 02:50:00,
2013-04-28 23:00:00,47.0,37.0,30.28,ENE,67,0.0,0.0,68,0.00,,CLR,0.00,VWS V14.01,2013-04-29 03:00:00,
2013-04-28 23:10:00,47.0,35.9,30.28,ENE,67,0.0,0.0,65,0.00,,CLR,0.00,VWS V14.01,2013-04-29 03:10:00,
2013-04-28 23:20:00,47.0,35.1,30.28,ENE,67,0.0,0.0,63,0.00,,CLR,0.00,VWS V14.01,2013-04-29 03:20:00,
2013-04-28 23:30:00,47.0,33.0,30.28,SE,135,0.0,0.0,58,0.00,,CLR,0.00,VWS V14.01,2013-04-29 03:30:00,
2013-04-28 23:40:00,48.0,32.6,30.28,SE,135,0.0,0.0,55,0.00,,CLR,0.00,VWS V14.01,2013-04-29 03:40:00,
2013-04-28 23:50:00,48.0,32.2,30.29,SE,135,0.0,0.0,54,0.00,,CLR,0.00,VWS V14.01,2013-04-29 03:50:00,